<?xml version="1.0" encoding="UTF-8" standalone="no" ?>
<gpx xmlns="http://www.topografix.com/GPX/1/1" xmlns:xsi="http://www.w3.org/2001/XMLSchema-instance" xsi:schemaLocation="http://www.topografix.com/GPX/1/1 http://www.topografix.com/GPX/1/1/gpx.xsd" version="1.1" creator="VisuGPX - https://www.visugpx.com">
  <metadata>
    <name>pointe du cerdosse </name>
    <desc><![CDATA[pont de la gitte mont rosset pointe du cerdosse redescendu la balme]]></desc>
  </metadata>
  <trk>
    <name><![CDATA[pointe de cerdo]]></name>
    <trkseg>
      <trkpt lat="45.5918" lon="6.67094">
        <ele>1415.8000488281</ele>
        <time>2012-03-25T04:34:10.000Z</time>
      </trkpt>
      <trkpt lat="45.59187" lon="6.67097">
        <ele>1417.4000244141</ele>
        <time>2012-03-25T04:34:20.000Z</time>
      </trkpt>
      <trkpt lat="45.59193" lon="6.67097">
        <ele>1417.8000488281</ele>
        <time>2012-03-25T04:34:28.000Z</time>
      </trkpt>
      <trkpt lat="45.59197" lon="6.67096">
        <ele>1417.5999755859</ele>
        <time>2012-03-25T04:34:32.000Z</time>
      </trkpt>
      <trkpt lat="45.59207" lon="6.67092">
        <ele>1417.1999511719</ele>
        <time>2012-03-25T04:34:43.000Z</time>
      </trkpt>
      <trkpt lat="45.59216" lon="6.6709">
        <ele>1417</ele>
        <time>2012-03-25T04:34:52.000Z</time>
      </trkpt>
      <trkpt lat="45.59224" lon="6.67087">
        <ele>1416.5999755859</ele>
        <time>2012-03-25T04:35:00.000Z</time>
      </trkpt>
      <trkpt lat="45.59229" lon="6.67086">
        <ele>1416.1999511719</ele>
        <time>2012-03-25T04:35:06.000Z</time>
      </trkpt>
      <trkpt lat="45.59233" lon="6.67085">
        <ele>1416.1999511719</ele>
        <time>2012-03-25T04:35:11.000Z</time>
      </trkpt>
      <trkpt lat="45.59239" lon="6.67086">
        <ele>1417</ele>
        <time>2012-03-25T04:35:18.000Z</time>
      </trkpt>
      <trkpt lat="45.59254" lon="6.67085">
        <ele>1417.5999755859</ele>
        <time>2012-03-25T04:35:30.000Z</time>
      </trkpt>
      <trkpt lat="45.59264" lon="6.67085">
        <ele>1418.4000244141</ele>
        <time>2012-03-25T04:35:38.000Z</time>
      </trkpt>
      <trkpt lat="45.59273" lon="6.67085">
        <ele>1418.8000488281</ele>
        <time>2012-03-25T04:35:45.000Z</time>
      </trkpt>
      <trkpt lat="45.5929" lon="6.67084">
        <ele>1419.1999511719</ele>
        <time>2012-03-25T04:35:59.000Z</time>
      </trkpt>
      <trkpt lat="45.59305" lon="6.67083">
        <ele>1419.5999755859</ele>
        <time>2012-03-25T04:36:13.000Z</time>
      </trkpt>
      <trkpt lat="45.59311" lon="6.67084">
        <ele>1420</ele>
        <time>2012-03-25T04:36:17.000Z</time>
      </trkpt>
      <trkpt lat="45.59331" lon="6.67087">
        <ele>1422.4000244141</ele>
        <time>2012-03-25T04:36:34.000Z</time>
      </trkpt>
      <trkpt lat="45.5935" lon="6.67091">
        <ele>1426.1999511719</ele>
        <time>2012-03-25T04:36:49.000Z</time>
      </trkpt>
      <trkpt lat="45.59362" lon="6.67088">
        <ele>1426</ele>
        <time>2012-03-25T04:36:58.000Z</time>
      </trkpt>
      <trkpt lat="45.5938" lon="6.67084">
        <ele>1426.4000244141</ele>
        <time>2012-03-25T04:37:11.000Z</time>
      </trkpt>
      <trkpt lat="45.59388" lon="6.6708">
        <ele>1425.8000488281</ele>
        <time>2012-03-25T04:37:18.000Z</time>
      </trkpt>
      <trkpt lat="45.594" lon="6.67072">
        <ele>1424.1999511719</ele>
        <time>2012-03-25T04:37:28.000Z</time>
      </trkpt>
      <trkpt lat="45.5941" lon="6.67064">
        <ele>1422.4000244141</ele>
        <time>2012-03-25T04:37:37.000Z</time>
      </trkpt>
      <trkpt lat="45.59422" lon="6.67054">
        <ele>1420.8000488281</ele>
        <time>2012-03-25T04:37:47.000Z</time>
      </trkpt>
      <trkpt lat="45.59434" lon="6.67046">
        <ele>1420.8000488281</ele>
        <time>2012-03-25T04:37:57.000Z</time>
      </trkpt>
      <trkpt lat="45.59446" lon="6.67043">
        <ele>1422.4000244141</ele>
        <time>2012-03-25T04:38:06.000Z</time>
      </trkpt>
      <trkpt lat="45.59458" lon="6.67042">
        <ele>1424.8000488281</ele>
        <time>2012-03-25T04:38:16.000Z</time>
      </trkpt>
      <trkpt lat="45.59468" lon="6.67035">
        <ele>1424.4000244141</ele>
        <time>2012-03-25T04:38:24.000Z</time>
      </trkpt>
      <trkpt lat="45.59478" lon="6.67023">
        <ele>1422.4000244141</ele>
        <time>2012-03-25T04:38:34.000Z</time>
      </trkpt>
      <trkpt lat="45.59502" lon="6.67006">
        <ele>1421.4000244141</ele>
        <time>2012-03-25T04:38:55.000Z</time>
      </trkpt>
      <trkpt lat="45.59514" lon="6.67">
        <ele>1421</ele>
        <time>2012-03-25T04:39:06.000Z</time>
      </trkpt>
      <trkpt lat="45.59519" lon="6.66999">
        <ele>1421.5999755859</ele>
        <time>2012-03-25T04:39:10.000Z</time>
      </trkpt>
      <trkpt lat="45.59533" lon="6.67">
        <ele>1423.8000488281</ele>
        <time>2012-03-25T04:39:24.000Z</time>
      </trkpt>
      <trkpt lat="45.59538" lon="6.67001">
        <ele>1424.8000488281</ele>
        <time>2012-03-25T04:39:32.000Z</time>
      </trkpt>
      <trkpt lat="45.59538" lon="6.66999">
        <ele>1424.4000244141</ele>
        <time>2012-03-25T04:39:42.000Z</time>
      </trkpt>
      <trkpt lat="45.59538" lon="6.66999">
        <ele>1424.4000244141</ele>
        <time>2012-03-25T04:39:52.000Z</time>
      </trkpt>
      <trkpt lat="45.59538" lon="6.66999">
        <ele>1424.4000244141</ele>
        <time>2012-03-25T04:40:03.000Z</time>
      </trkpt>
      <trkpt lat="45.59538" lon="6.66998">
        <ele>1424.4000244141</ele>
        <time>2012-03-25T04:40:18.000Z</time>
      </trkpt>
      <trkpt lat="45.59537" lon="6.66996">
        <ele>1424</ele>
        <time>2012-03-25T04:40:29.000Z</time>
      </trkpt>
      <trkpt lat="45.59536" lon="6.66995">
        <ele>1423.8000488281</ele>
        <time>2012-03-25T04:40:36.000Z</time>
      </trkpt>
      <trkpt lat="45.59535" lon="6.66994">
        <ele>1423.5999755859</ele>
        <time>2012-03-25T04:40:38.000Z</time>
      </trkpt>
      <trkpt lat="45.59535" lon="6.66991">
        <ele>1423.4000244141</ele>
        <time>2012-03-25T04:40:57.000Z</time>
      </trkpt>
      <trkpt lat="45.59535" lon="6.66991">
        <ele>1423.4000244141</ele>
        <time>2012-03-25T04:41:12.000Z</time>
      </trkpt>
      <trkpt lat="45.59536" lon="6.66991">
        <ele>1423.4000244141</ele>
        <time>2012-03-25T04:41:20.000Z</time>
      </trkpt>
      <trkpt lat="45.59537" lon="6.66992">
        <ele>1423.5999755859</ele>
        <time>2012-03-25T04:41:26.000Z</time>
      </trkpt>
      <trkpt lat="45.59536" lon="6.66992">
        <ele>1423.5999755859</ele>
        <time>2012-03-25T04:41:32.000Z</time>
      </trkpt>
      <trkpt lat="45.59539" lon="6.66995">
        <ele>1424.1999511719</ele>
        <time>2012-03-25T04:41:41.000Z</time>
      </trkpt>
      <trkpt lat="45.59541" lon="6.66996">
        <ele>1424.5999755859</ele>
        <time>2012-03-25T04:41:50.000Z</time>
      </trkpt>
      <trkpt lat="45.59542" lon="6.66997">
        <ele>1424.8000488281</ele>
        <time>2012-03-25T04:41:59.000Z</time>
      </trkpt>
      <trkpt lat="45.59544" lon="6.66998">
        <ele>1425.1999511719</ele>
        <time>2012-03-25T04:42:05.000Z</time>
      </trkpt>
      <trkpt lat="45.59548" lon="6.66999">
        <ele>1425.8000488281</ele>
        <time>2012-03-25T04:42:14.000Z</time>
      </trkpt>
      <trkpt lat="45.59548" lon="6.66999">
        <ele>1425.8000488281</ele>
        <time>2012-03-25T04:42:26.000Z</time>
      </trkpt>
      <trkpt lat="45.59551" lon="6.67">
        <ele>1426.1999511719</ele>
        <time>2012-03-25T04:42:33.000Z</time>
      </trkpt>
      <trkpt lat="45.59556" lon="6.67002">
        <ele>1427.5999755859</ele>
        <time>2012-03-25T04:42:39.000Z</time>
      </trkpt>
      <trkpt lat="45.59559" lon="6.67002">
        <ele>1428.4000244141</ele>
        <time>2012-03-25T04:42:42.000Z</time>
      </trkpt>
      <trkpt lat="45.59569" lon="6.67001">
        <ele>1429.1999511719</ele>
        <time>2012-03-25T04:42:53.000Z</time>
      </trkpt>
      <trkpt lat="45.59574" lon="6.67">
        <ele>1429.5999755859</ele>
        <time>2012-03-25T04:42:59.000Z</time>
      </trkpt>
      <trkpt lat="45.59587" lon="6.67">
        <ele>1431.5999755859</ele>
        <time>2012-03-25T04:43:12.000Z</time>
      </trkpt>
      <trkpt lat="45.596" lon="6.67005">
        <ele>1435.5999755859</ele>
        <time>2012-03-25T04:43:24.000Z</time>
      </trkpt>
      <trkpt lat="45.5961" lon="6.67013">
        <ele>1439.8000488281</ele>
        <time>2012-03-25T04:43:35.000Z</time>
      </trkpt>
      <trkpt lat="45.59615" lon="6.67015">
        <ele>1441.1999511719</ele>
        <time>2012-03-25T04:43:41.000Z</time>
      </trkpt>
      <trkpt lat="45.59622" lon="6.67017">
        <ele>1442.8000488281</ele>
        <time>2012-03-25T04:43:47.000Z</time>
      </trkpt>
      <trkpt lat="45.59628" lon="6.67018">
        <ele>1443.8000488281</ele>
        <time>2012-03-25T04:43:53.000Z</time>
      </trkpt>
      <trkpt lat="45.59633" lon="6.67016">
        <ele>1443.5999755859</ele>
        <time>2012-03-25T04:43:59.000Z</time>
      </trkpt>
      <trkpt lat="45.59638" lon="6.6701">
        <ele>1442.5999755859</ele>
        <time>2012-03-25T04:44:05.000Z</time>
      </trkpt>
      <trkpt lat="45.59642" lon="6.66995">
        <ele>1440.5999755859</ele>
        <time>2012-03-25T04:44:17.000Z</time>
      </trkpt>
      <trkpt lat="45.59639" lon="6.66974">
        <ele>1441.4000244141</ele>
        <time>2012-03-25T04:44:32.000Z</time>
      </trkpt>
      <trkpt lat="45.59635" lon="6.66963">
        <ele>1441.5999755859</ele>
        <time>2012-03-25T04:44:40.000Z</time>
      </trkpt>
      <trkpt lat="45.59634" lon="6.66959">
        <ele>1441.5999755859</ele>
        <time>2012-03-25T04:44:44.000Z</time>
      </trkpt>
      <trkpt lat="45.59633" lon="6.6695">
        <ele>1442</ele>
        <time>2012-03-25T04:44:50.000Z</time>
      </trkpt>
      <trkpt lat="45.59634" lon="6.66941">
        <ele>1442.5999755859</ele>
        <time>2012-03-25T04:44:57.000Z</time>
      </trkpt>
      <trkpt lat="45.59635" lon="6.6693">
        <ele>1443.8000488281</ele>
        <time>2012-03-25T04:45:05.000Z</time>
      </trkpt>
      <trkpt lat="45.59636" lon="6.66921">
        <ele>1444.5999755859</ele>
        <time>2012-03-25T04:45:12.000Z</time>
      </trkpt>
      <trkpt lat="45.59638" lon="6.6691">
        <ele>1446</ele>
        <time>2012-03-25T04:45:21.000Z</time>
      </trkpt>
      <trkpt lat="45.59639" lon="6.669">
        <ele>1447</ele>
        <time>2012-03-25T04:45:29.000Z</time>
      </trkpt>
      <trkpt lat="45.59639" lon="6.66897">
        <ele>1447.4000244141</ele>
        <time>2012-03-25T04:45:32.000Z</time>
      </trkpt>
      <trkpt lat="45.59641" lon="6.66881">
        <ele>1449.1999511719</ele>
        <time>2012-03-25T04:45:45.000Z</time>
      </trkpt>
      <trkpt lat="45.59642" lon="6.66872">
        <ele>1450.1999511719</ele>
        <time>2012-03-25T04:45:52.000Z</time>
      </trkpt>
      <trkpt lat="45.59641" lon="6.6686">
        <ele>1451</ele>
        <time>2012-03-25T04:46:00.000Z</time>
      </trkpt>
      <trkpt lat="45.59642" lon="6.6684">
        <ele>1452.8000488281</ele>
        <time>2012-03-25T04:46:17.000Z</time>
      </trkpt>
      <trkpt lat="45.59644" lon="6.66834">
        <ele>1453.4000244141</ele>
        <time>2012-03-25T04:46:23.000Z</time>
      </trkpt>
      <trkpt lat="45.59645" lon="6.66831">
        <ele>1454.1999511719</ele>
        <time>2012-03-25T04:46:27.000Z</time>
      </trkpt>
      <trkpt lat="45.59646" lon="6.66827">
        <ele>1455.4000244141</ele>
        <time>2012-03-25T04:46:31.000Z</time>
      </trkpt>
      <trkpt lat="45.59647" lon="6.66824">
        <ele>1456</ele>
        <time>2012-03-25T04:46:34.000Z</time>
      </trkpt>
      <trkpt lat="45.59647" lon="6.66821">
        <ele>1457</ele>
        <time>2012-03-25T04:46:39.000Z</time>
      </trkpt>
      <trkpt lat="45.59651" lon="6.66811">
        <ele>1459.8000488281</ele>
        <time>2012-03-25T04:46:51.000Z</time>
      </trkpt>
      <trkpt lat="45.59654" lon="6.66805">
        <ele>1461.5999755859</ele>
        <time>2012-03-25T04:47:00.000Z</time>
      </trkpt>
      <trkpt lat="45.59656" lon="6.66803">
        <ele>1462</ele>
        <time>2012-03-25T04:47:11.000Z</time>
      </trkpt>
      <trkpt lat="45.59656" lon="6.66802">
        <ele>1462.1999511719</ele>
        <time>2012-03-25T04:47:15.000Z</time>
      </trkpt>
      <trkpt lat="45.59654" lon="6.66801">
        <ele>1462.4000244141</ele>
        <time>2012-03-25T04:47:22.000Z</time>
      </trkpt>
      <trkpt lat="45.59653" lon="6.668">
        <ele>1462.5999755859</ele>
        <time>2012-03-25T04:47:28.000Z</time>
      </trkpt>
      <trkpt lat="45.59653" lon="6.66799">
        <ele>1462.5999755859</ele>
        <time>2012-03-25T04:47:32.000Z</time>
      </trkpt>
      <trkpt lat="45.59654" lon="6.668">
        <ele>1462.5999755859</ele>
        <time>2012-03-25T04:47:39.000Z</time>
      </trkpt>
      <trkpt lat="45.59652" lon="6.668">
        <ele>1462.4000244141</ele>
        <time>2012-03-25T04:47:45.000Z</time>
      </trkpt>
      <trkpt lat="45.59652" lon="6.668">
        <ele>1462.5999755859</ele>
        <time>2012-03-25T04:47:51.000Z</time>
      </trkpt>
      <trkpt lat="45.59652" lon="6.66798">
        <ele>1463</ele>
        <time>2012-03-25T04:47:55.000Z</time>
      </trkpt>
      <trkpt lat="45.59654" lon="6.66796">
        <ele>1463.5999755859</ele>
        <time>2012-03-25T04:47:59.000Z</time>
      </trkpt>
      <trkpt lat="45.59655" lon="6.66794">
        <ele>1464.1999511719</ele>
        <time>2012-03-25T04:48:03.000Z</time>
      </trkpt>
      <trkpt lat="45.59656" lon="6.66793">
        <ele>1464.5999755859</ele>
        <time>2012-03-25T04:48:05.000Z</time>
      </trkpt>
      <trkpt lat="45.59657" lon="6.66791">
        <ele>1465</ele>
        <time>2012-03-25T04:48:09.000Z</time>
      </trkpt>
      <trkpt lat="45.59657" lon="6.66789">
        <ele>1465.5999755859</ele>
        <time>2012-03-25T04:48:12.000Z</time>
      </trkpt>
      <trkpt lat="45.59658" lon="6.66786">
        <ele>1466.1999511719</ele>
        <time>2012-03-25T04:48:15.000Z</time>
      </trkpt>
      <trkpt lat="45.59658" lon="6.66781">
        <ele>1467.4000244141</ele>
        <time>2012-03-25T04:48:18.000Z</time>
      </trkpt>
      <trkpt lat="45.5966" lon="6.66776">
        <ele>1468.5999755859</ele>
        <time>2012-03-25T04:48:23.000Z</time>
      </trkpt>
      <trkpt lat="45.59666" lon="6.66776">
        <ele>1469.1999511719</ele>
        <time>2012-03-25T04:48:31.000Z</time>
      </trkpt>
      <trkpt lat="45.59671" lon="6.66777">
        <ele>1470</ele>
        <time>2012-03-25T04:48:37.000Z</time>
      </trkpt>
      <trkpt lat="45.59674" lon="6.66778">
        <ele>1470.5999755859</ele>
        <time>2012-03-25T04:48:41.000Z</time>
      </trkpt>
      <trkpt lat="45.59682" lon="6.66784">
        <ele>1471.4000244141</ele>
        <time>2012-03-25T04:48:50.000Z</time>
      </trkpt>
      <trkpt lat="45.59689" lon="6.6679">
        <ele>1471.8000488281</ele>
        <time>2012-03-25T04:48:57.000Z</time>
      </trkpt>
      <trkpt lat="45.59695" lon="6.66794">
        <ele>1472.4000244141</ele>
        <time>2012-03-25T04:49:04.000Z</time>
      </trkpt>
      <trkpt lat="45.59701" lon="6.66799">
        <ele>1472.5999755859</ele>
        <time>2012-03-25T04:49:11.000Z</time>
      </trkpt>
      <trkpt lat="45.59708" lon="6.66807">
        <ele>1472.8000488281</ele>
        <time>2012-03-25T04:49:20.000Z</time>
      </trkpt>
      <trkpt lat="45.59713" lon="6.66813">
        <ele>1472.8000488281</ele>
        <time>2012-03-25T04:49:27.000Z</time>
      </trkpt>
      <trkpt lat="45.5972" lon="6.66822">
        <ele>1472.5999755859</ele>
        <time>2012-03-25T04:49:36.000Z</time>
      </trkpt>
      <trkpt lat="45.59723" lon="6.66827">
        <ele>1472.1999511719</ele>
        <time>2012-03-25T04:49:41.000Z</time>
      </trkpt>
      <trkpt lat="45.59727" lon="6.66836">
        <ele>1471.8000488281</ele>
        <time>2012-03-25T04:49:48.000Z</time>
      </trkpt>
      <trkpt lat="45.59728" lon="6.66841">
        <ele>1472</ele>
        <time>2012-03-25T04:49:52.000Z</time>
      </trkpt>
      <trkpt lat="45.59731" lon="6.66852">
        <ele>1472.1999511719</ele>
        <time>2012-03-25T04:50:00.000Z</time>
      </trkpt>
      <trkpt lat="45.59733" lon="6.66861">
        <ele>1472.1999511719</ele>
        <time>2012-03-25T04:50:06.000Z</time>
      </trkpt>
      <trkpt lat="45.59734" lon="6.66871">
        <ele>1472.1999511719</ele>
        <time>2012-03-25T04:50:13.000Z</time>
      </trkpt>
      <trkpt lat="45.59735" lon="6.66892">
        <ele>1471.5999755859</ele>
        <time>2012-03-25T04:50:28.000Z</time>
      </trkpt>
      <trkpt lat="45.59736" lon="6.66909">
        <ele>1471</ele>
        <time>2012-03-25T04:50:40.000Z</time>
      </trkpt>
      <trkpt lat="45.59739" lon="6.66927">
        <ele>1470</ele>
        <time>2012-03-25T04:50:53.000Z</time>
      </trkpt>
      <trkpt lat="45.59741" lon="6.66935">
        <ele>1469.4000244141</ele>
        <time>2012-03-25T04:50:59.000Z</time>
      </trkpt>
      <trkpt lat="45.5975" lon="6.66946">
        <ele>1470</ele>
        <time>2012-03-25T04:51:12.000Z</time>
      </trkpt>
      <trkpt lat="45.59757" lon="6.66946">
        <ele>1471.1999511719</ele>
        <time>2012-03-25T04:51:25.000Z</time>
      </trkpt>
      <trkpt lat="45.59765" lon="6.6694">
        <ele>1473</ele>
        <time>2012-03-25T04:51:37.000Z</time>
      </trkpt>
      <trkpt lat="45.59767" lon="6.66937">
        <ele>1474</ele>
        <time>2012-03-25T04:51:43.000Z</time>
      </trkpt>
      <trkpt lat="45.59769" lon="6.66932">
        <ele>1475</ele>
        <time>2012-03-25T04:51:49.000Z</time>
      </trkpt>
      <trkpt lat="45.59771" lon="6.66927">
        <ele>1476</ele>
        <time>2012-03-25T04:51:55.000Z</time>
      </trkpt>
      <trkpt lat="45.59774" lon="6.66922">
        <ele>1477.4000244141</ele>
        <time>2012-03-25T04:52:02.000Z</time>
      </trkpt>
      <trkpt lat="45.59777" lon="6.66916">
        <ele>1478.5999755859</ele>
        <time>2012-03-25T04:52:09.000Z</time>
      </trkpt>
      <trkpt lat="45.59779" lon="6.66912">
        <ele>1479.4000244141</ele>
        <time>2012-03-25T04:52:14.000Z</time>
      </trkpt>
      <trkpt lat="45.5978" lon="6.66906">
        <ele>1480</ele>
        <time>2012-03-25T04:52:20.000Z</time>
      </trkpt>
      <trkpt lat="45.59783" lon="6.66903">
        <ele>1480.8000488281</ele>
        <time>2012-03-25T04:52:25.000Z</time>
      </trkpt>
      <trkpt lat="45.59785" lon="6.66898">
        <ele>1481.8000488281</ele>
        <time>2012-03-25T04:52:33.000Z</time>
      </trkpt>
      <trkpt lat="45.59786" lon="6.66896">
        <ele>1482</ele>
        <time>2012-03-25T04:52:38.000Z</time>
      </trkpt>
      <trkpt lat="45.59789" lon="6.66891">
        <ele>1483.1999511719</ele>
        <time>2012-03-25T04:52:44.000Z</time>
      </trkpt>
      <trkpt lat="45.59793" lon="6.6689">
        <ele>1484</ele>
        <time>2012-03-25T04:52:49.000Z</time>
      </trkpt>
      <trkpt lat="45.59795" lon="6.6689">
        <ele>1484.4000244141</ele>
        <time>2012-03-25T04:52:52.000Z</time>
      </trkpt>
      <trkpt lat="45.59797" lon="6.66892">
        <ele>1484.8000488281</ele>
        <time>2012-03-25T04:52:58.000Z</time>
      </trkpt>
      <trkpt lat="45.59799" lon="6.66891">
        <ele>1485.4000244141</ele>
        <time>2012-03-25T04:53:04.000Z</time>
      </trkpt>
      <trkpt lat="45.59804" lon="6.66894">
        <ele>1486</ele>
        <time>2012-03-25T04:53:09.000Z</time>
      </trkpt>
      <trkpt lat="45.59813" lon="6.66895">
        <ele>1487.5999755859</ele>
        <time>2012-03-25T04:53:21.000Z</time>
      </trkpt>
      <trkpt lat="45.59815" lon="6.66895">
        <ele>1488</ele>
        <time>2012-03-25T04:53:30.000Z</time>
      </trkpt>
      <trkpt lat="45.59814" lon="6.66894">
        <ele>1487.8000488281</ele>
        <time>2012-03-25T04:53:40.000Z</time>
      </trkpt>
      <trkpt lat="45.59815" lon="6.66894">
        <ele>1488.1999511719</ele>
        <time>2012-03-25T04:53:47.000Z</time>
      </trkpt>
      <trkpt lat="45.59815" lon="6.66894">
        <ele>1488.1999511719</ele>
        <time>2012-03-25T04:53:56.000Z</time>
      </trkpt>
      <trkpt lat="45.59815" lon="6.66893">
        <ele>1488.1999511719</ele>
        <time>2012-03-25T04:54:06.000Z</time>
      </trkpt>
      <trkpt lat="45.59815" lon="6.66893">
        <ele>1488.1999511719</ele>
        <time>2012-03-25T04:54:15.000Z</time>
      </trkpt>
      <trkpt lat="45.59815" lon="6.66893">
        <ele>1488.1999511719</ele>
        <time>2012-03-25T04:54:19.000Z</time>
      </trkpt>
      <trkpt lat="45.59815" lon="6.66892">
        <ele>1488.4000244141</ele>
        <time>2012-03-25T04:54:30.000Z</time>
      </trkpt>
      <trkpt lat="45.59815" lon="6.66892">
        <ele>1488.4000244141</ele>
        <time>2012-03-25T04:54:38.000Z</time>
      </trkpt>
      <trkpt lat="45.59816" lon="6.66892">
        <ele>1488.5999755859</ele>
        <time>2012-03-25T04:54:46.000Z</time>
      </trkpt>
      <trkpt lat="45.59818" lon="6.66892">
        <ele>1489</ele>
        <time>2012-03-25T04:55:04.000Z</time>
      </trkpt>
      <trkpt lat="45.59817" lon="6.66892">
        <ele>1488.8000488281</ele>
        <time>2012-03-25T04:55:10.000Z</time>
      </trkpt>
      <trkpt lat="45.59817" lon="6.66892">
        <ele>1488.8000488281</ele>
        <time>2012-03-25T04:55:17.000Z</time>
      </trkpt>
      <trkpt lat="45.59817" lon="6.66891">
        <ele>1488.8000488281</ele>
        <time>2012-03-25T04:55:38.000Z</time>
      </trkpt>
      <trkpt lat="45.59817" lon="6.66892">
        <ele>1488.8000488281</ele>
        <time>2012-03-25T04:55:59.000Z</time>
      </trkpt>
      <trkpt lat="45.59817" lon="6.66891">
        <ele>1489</ele>
        <time>2012-03-25T04:56:18.000Z</time>
      </trkpt>
      <trkpt lat="45.59817" lon="6.66891">
        <ele>1488.8000488281</ele>
        <time>2012-03-25T04:56:27.000Z</time>
      </trkpt>
      <trkpt lat="45.59816" lon="6.6689">
        <ele>1489</ele>
        <time>2012-03-25T04:56:43.000Z</time>
      </trkpt>
      <trkpt lat="45.59817" lon="6.66887">
        <ele>1489.4000244141</ele>
        <time>2012-03-25T04:56:50.000Z</time>
      </trkpt>
      <trkpt lat="45.59818" lon="6.66881">
        <ele>1490.5999755859</ele>
        <time>2012-03-25T04:56:57.000Z</time>
      </trkpt>
      <trkpt lat="45.59818" lon="6.66872">
        <ele>1492</ele>
        <time>2012-03-25T04:57:06.000Z</time>
      </trkpt>
      <trkpt lat="45.59809" lon="6.66863">
        <ele>1491.1999511719</ele>
        <time>2012-03-25T04:57:23.000Z</time>
      </trkpt>
      <trkpt lat="45.59816" lon="6.6686">
        <ele>1493</ele>
        <time>2012-03-25T04:57:32.000Z</time>
      </trkpt>
      <trkpt lat="45.59822" lon="6.66854">
        <ele>1495.5999755859</ele>
        <time>2012-03-25T04:57:46.000Z</time>
      </trkpt>
      <trkpt lat="45.59827" lon="6.66848">
        <ele>1497.8000488281</ele>
        <time>2012-03-25T04:58:04.000Z</time>
      </trkpt>
      <trkpt lat="45.59824" lon="6.66838">
        <ele>1498.5999755859</ele>
        <time>2012-03-25T04:58:15.000Z</time>
      </trkpt>
      <trkpt lat="45.59821" lon="6.6683">
        <ele>1499.1999511719</ele>
        <time>2012-03-25T04:58:24.000Z</time>
      </trkpt>
      <trkpt lat="45.59824" lon="6.66823">
        <ele>1501.5999755859</ele>
        <time>2012-03-25T04:58:32.000Z</time>
      </trkpt>
      <trkpt lat="45.59828" lon="6.66817">
        <ele>1503.8000488281</ele>
        <time>2012-03-25T04:58:40.000Z</time>
      </trkpt>
      <trkpt lat="45.59832" lon="6.66806">
        <ele>1507.4000244141</ele>
        <time>2012-03-25T04:58:53.000Z</time>
      </trkpt>
      <trkpt lat="45.59839" lon="6.66801">
        <ele>1510.4000244141</ele>
        <time>2012-03-25T04:59:05.000Z</time>
      </trkpt>
      <trkpt lat="45.59842" lon="6.66791">
        <ele>1513.4000244141</ele>
        <time>2012-03-25T04:59:16.000Z</time>
      </trkpt>
      <trkpt lat="45.59843" lon="6.66779">
        <ele>1516.1999511719</ele>
        <time>2012-03-25T04:59:29.000Z</time>
      </trkpt>
      <trkpt lat="45.59844" lon="6.66766">
        <ele>1519.1999511719</ele>
        <time>2012-03-25T04:59:46.000Z</time>
      </trkpt>
      <trkpt lat="45.59839" lon="6.66754">
        <ele>1520</ele>
        <time>2012-03-25T04:59:57.000Z</time>
      </trkpt>
      <trkpt lat="45.59839" lon="6.66748">
        <ele>1521.5999755859</ele>
        <time>2012-03-25T05:00:03.000Z</time>
      </trkpt>
      <trkpt lat="45.59844" lon="6.66741">
        <ele>1525</ele>
        <time>2012-03-25T05:00:15.000Z</time>
      </trkpt>
      <trkpt lat="45.59848" lon="6.66741">
        <ele>1526.1999511719</ele>
        <time>2012-03-25T05:00:27.000Z</time>
      </trkpt>
      <trkpt lat="45.59849" lon="6.6673">
        <ele>1529.4000244141</ele>
        <time>2012-03-25T05:00:41.000Z</time>
      </trkpt>
      <trkpt lat="45.59846" lon="6.66717">
        <ele>1532.1999511719</ele>
        <time>2012-03-25T05:00:55.000Z</time>
      </trkpt>
      <trkpt lat="45.59849" lon="6.6671">
        <ele>1535.1999511719</ele>
        <time>2012-03-25T05:01:12.000Z</time>
      </trkpt>
      <trkpt lat="45.59851" lon="6.66709">
        <ele>1536</ele>
        <time>2012-03-25T05:01:18.000Z</time>
      </trkpt>
      <trkpt lat="45.59853" lon="6.66707">
        <ele>1537.1999511719</ele>
        <time>2012-03-25T05:01:32.000Z</time>
      </trkpt>
      <trkpt lat="45.5986" lon="6.66706">
        <ele>1539.1999511719</ele>
        <time>2012-03-25T05:01:44.000Z</time>
      </trkpt>
      <trkpt lat="45.59863" lon="6.66696">
        <ele>1542.8000488281</ele>
        <time>2012-03-25T05:02:00.000Z</time>
      </trkpt>
      <trkpt lat="45.59863" lon="6.66682">
        <ele>1546</ele>
        <time>2012-03-25T05:02:16.000Z</time>
      </trkpt>
      <trkpt lat="45.59867" lon="6.66675">
        <ele>1548.8000488281</ele>
        <time>2012-03-25T05:02:28.000Z</time>
      </trkpt>
      <trkpt lat="45.59869" lon="6.66667">
        <ele>1551.1999511719</ele>
        <time>2012-03-25T05:02:41.000Z</time>
      </trkpt>
      <trkpt lat="45.59869" lon="6.66656">
        <ele>1554.1999511719</ele>
        <time>2012-03-25T05:02:53.000Z</time>
      </trkpt>
      <trkpt lat="45.59868" lon="6.6665">
        <ele>1556</ele>
        <time>2012-03-25T05:03:03.000Z</time>
      </trkpt>
      <trkpt lat="45.59869" lon="6.66638">
        <ele>1559.5999755859</ele>
        <time>2012-03-25T05:03:23.000Z</time>
      </trkpt>
      <trkpt lat="45.59868" lon="6.66628">
        <ele>1562.1999511719</ele>
        <time>2012-03-25T05:03:38.000Z</time>
      </trkpt>
      <trkpt lat="45.59869" lon="6.66624">
        <ele>1563.5999755859</ele>
        <time>2012-03-25T05:03:54.000Z</time>
      </trkpt>
      <trkpt lat="45.59875" lon="6.66619">
        <ele>1566</ele>
        <time>2012-03-25T05:04:08.000Z</time>
      </trkpt>
      <trkpt lat="45.59878" lon="6.66614">
        <ele>1567.8000488281</ele>
        <time>2012-03-25T05:04:18.000Z</time>
      </trkpt>
      <trkpt lat="45.59883" lon="6.6661">
        <ele>1569.8000488281</ele>
        <time>2012-03-25T05:04:31.000Z</time>
      </trkpt>
      <trkpt lat="45.5989" lon="6.66609">
        <ele>1571.1999511719</ele>
        <time>2012-03-25T05:04:47.000Z</time>
      </trkpt>
      <trkpt lat="45.59897" lon="6.66614">
        <ele>1571.1999511719</ele>
        <time>2012-03-25T05:05:04.000Z</time>
      </trkpt>
      <trkpt lat="45.59899" lon="6.66611">
        <ele>1572.1999511719</ele>
        <time>2012-03-25T05:05:12.000Z</time>
      </trkpt>
      <trkpt lat="45.59901" lon="6.66589">
        <ele>1578.1999511719</ele>
        <time>2012-03-25T05:05:37.000Z</time>
      </trkpt>
      <trkpt lat="45.59901" lon="6.66581">
        <ele>1580.5999755859</ele>
        <time>2012-03-25T05:05:49.000Z</time>
      </trkpt>
      <trkpt lat="45.59902" lon="6.66572">
        <ele>1582.8000488281</ele>
        <time>2012-03-25T05:05:59.000Z</time>
      </trkpt>
      <trkpt lat="45.59901" lon="6.66566">
        <ele>1584.4000244141</ele>
        <time>2012-03-25T05:06:10.000Z</time>
      </trkpt>
      <trkpt lat="45.59901" lon="6.66561">
        <ele>1585.5999755859</ele>
        <time>2012-03-25T05:06:26.000Z</time>
      </trkpt>
      <trkpt lat="45.59898" lon="6.66553">
        <ele>1587.5999755859</ele>
        <time>2012-03-25T05:06:40.000Z</time>
      </trkpt>
      <trkpt lat="45.59897" lon="6.66545">
        <ele>1589.5999755859</ele>
        <time>2012-03-25T05:07:00.000Z</time>
      </trkpt>
      <trkpt lat="45.59897" lon="6.66545">
        <ele>1589.5999755859</ele>
        <time>2012-03-25T05:07:11.000Z</time>
      </trkpt>
      <trkpt lat="45.59894" lon="6.66536">
        <ele>1591.8000488281</ele>
        <time>2012-03-25T05:07:25.000Z</time>
      </trkpt>
      <trkpt lat="45.59897" lon="6.66542">
        <ele>1590.4000244141</ele>
        <time>2012-03-25T05:07:47.000Z</time>
      </trkpt>
      <trkpt lat="45.59911" lon="6.66561">
        <ele>1586.8000488281</ele>
        <time>2012-03-25T05:08:09.000Z</time>
      </trkpt>
      <trkpt lat="45.59921" lon="6.66575">
        <ele>1586.4000244141</ele>
        <time>2012-03-25T05:08:27.000Z</time>
      </trkpt>
      <trkpt lat="45.59929" lon="6.66591">
        <ele>1586.5999755859</ele>
        <time>2012-03-25T05:08:47.000Z</time>
      </trkpt>
      <trkpt lat="45.5994" lon="6.66607">
        <ele>1588.1999511719</ele>
        <time>2012-03-25T05:09:07.000Z</time>
      </trkpt>
      <trkpt lat="45.59951" lon="6.66616">
        <ele>1591.5999755859</ele>
        <time>2012-03-25T05:09:24.000Z</time>
      </trkpt>
      <trkpt lat="45.59963" lon="6.66627">
        <ele>1595.1999511719</ele>
        <time>2012-03-25T05:09:42.000Z</time>
      </trkpt>
      <trkpt lat="45.59971" lon="6.66637">
        <ele>1597.5999755859</ele>
        <time>2012-03-25T05:09:57.000Z</time>
      </trkpt>
      <trkpt lat="45.59976" lon="6.66641">
        <ele>1599</ele>
        <time>2012-03-25T05:10:06.000Z</time>
      </trkpt>
      <trkpt lat="45.59976" lon="6.66641">
        <ele>1599.1999511719</ele>
        <time>2012-03-25T05:10:21.000Z</time>
      </trkpt>
      <trkpt lat="45.59974" lon="6.66633">
        <ele>1600.1999511719</ele>
        <time>2012-03-25T05:10:33.000Z</time>
      </trkpt>
      <trkpt lat="45.59974" lon="6.66627">
        <ele>1601.4000244141</ele>
        <time>2012-03-25T05:10:42.000Z</time>
      </trkpt>
      <trkpt lat="45.59973" lon="6.6662">
        <ele>1602.1999511719</ele>
        <time>2012-03-25T05:10:52.000Z</time>
      </trkpt>
      <trkpt lat="45.5997" lon="6.66609">
        <ele>1603.4000244141</ele>
        <time>2012-03-25T05:11:08.000Z</time>
      </trkpt>
      <trkpt lat="45.59967" lon="6.66599">
        <ele>1604.5999755859</ele>
        <time>2012-03-25T05:11:21.000Z</time>
      </trkpt>
      <trkpt lat="45.59966" lon="6.66592">
        <ele>1605</ele>
        <time>2012-03-25T05:11:32.000Z</time>
      </trkpt>
      <trkpt lat="45.59961" lon="6.66583">
        <ele>1605.1999511719</ele>
        <time>2012-03-25T05:11:47.000Z</time>
      </trkpt>
      <trkpt lat="45.5996" lon="6.66574">
        <ele>1606.8000488281</ele>
        <time>2012-03-25T05:11:57.000Z</time>
      </trkpt>
      <trkpt lat="45.59961" lon="6.66569">
        <ele>1608.4000244141</ele>
        <time>2012-03-25T05:12:02.000Z</time>
      </trkpt>
      <trkpt lat="45.59963" lon="6.66559">
        <ele>1611.4000244141</ele>
        <time>2012-03-25T05:12:15.000Z</time>
      </trkpt>
      <trkpt lat="45.59962" lon="6.66552">
        <ele>1612.8000488281</ele>
        <time>2012-03-25T05:12:26.000Z</time>
      </trkpt>
      <trkpt lat="45.59961" lon="6.66536">
        <ele>1616</ele>
        <time>2012-03-25T05:12:42.000Z</time>
      </trkpt>
      <trkpt lat="45.59963" lon="6.66524">
        <ele>1619.8000488281</ele>
        <time>2012-03-25T05:12:55.000Z</time>
      </trkpt>
      <trkpt lat="45.59963" lon="6.6651">
        <ele>1622.8000488281</ele>
        <time>2012-03-25T05:13:09.000Z</time>
      </trkpt>
      <trkpt lat="45.59961" lon="6.66496">
        <ele>1625</ele>
        <time>2012-03-25T05:13:23.000Z</time>
      </trkpt>
      <trkpt lat="45.59961" lon="6.66489">
        <ele>1625.5999755859</ele>
        <time>2012-03-25T05:13:30.000Z</time>
      </trkpt>
      <trkpt lat="45.59962" lon="6.66474">
        <ele>1628.5999755859</ele>
        <time>2012-03-25T05:13:47.000Z</time>
      </trkpt>
      <trkpt lat="45.59964" lon="6.66461">
        <ele>1631</ele>
        <time>2012-03-25T05:14:00.000Z</time>
      </trkpt>
      <trkpt lat="45.59964" lon="6.6645">
        <ele>1632.4000244141</ele>
        <time>2012-03-25T05:14:10.000Z</time>
      </trkpt>
      <trkpt lat="45.59967" lon="6.66444">
        <ele>1634.4000244141</ele>
        <time>2012-03-25T05:14:18.000Z</time>
      </trkpt>
      <trkpt lat="45.59971" lon="6.66435">
        <ele>1637.1999511719</ele>
        <time>2012-03-25T05:14:29.000Z</time>
      </trkpt>
      <trkpt lat="45.59973" lon="6.66424">
        <ele>1639.4000244141</ele>
        <time>2012-03-25T05:14:46.000Z</time>
      </trkpt>
      <trkpt lat="45.59975" lon="6.66405">
        <ele>1642</ele>
        <time>2012-03-25T05:15:05.000Z</time>
      </trkpt>
      <trkpt lat="45.59977" lon="6.66396">
        <ele>1643.8000488281</ele>
        <time>2012-03-25T05:15:17.000Z</time>
      </trkpt>
      <trkpt lat="45.59977" lon="6.66388">
        <ele>1644.5999755859</ele>
        <time>2012-03-25T05:15:26.000Z</time>
      </trkpt>
      <trkpt lat="45.59982" lon="6.66386">
        <ele>1646.1999511719</ele>
        <time>2012-03-25T05:15:36.000Z</time>
      </trkpt>
      <trkpt lat="45.59983" lon="6.66374">
        <ele>1647.5999755859</ele>
        <time>2012-03-25T05:15:49.000Z</time>
      </trkpt>
      <trkpt lat="45.59988" lon="6.66362">
        <ele>1649.5999755859</ele>
        <time>2012-03-25T05:16:03.000Z</time>
      </trkpt>
      <trkpt lat="45.59992" lon="6.66353">
        <ele>1651.4000244141</ele>
        <time>2012-03-25T05:16:15.000Z</time>
      </trkpt>
      <trkpt lat="45.59997" lon="6.66353">
        <ele>1652.4000244141</ele>
        <time>2012-03-25T05:16:26.000Z</time>
      </trkpt>
      <trkpt lat="45.59999" lon="6.66349">
        <ele>1653</ele>
        <time>2012-03-25T05:16:39.000Z</time>
      </trkpt>
      <trkpt lat="45.6" lon="6.66345">
        <ele>1653.4000244141</ele>
        <time>2012-03-25T05:16:46.000Z</time>
      </trkpt>
      <trkpt lat="45.6" lon="6.66337">
        <ele>1653.8000488281</ele>
        <time>2012-03-25T05:16:58.000Z</time>
      </trkpt>
      <trkpt lat="45.6" lon="6.66323">
        <ele>1655.4000244141</ele>
        <time>2012-03-25T05:17:13.000Z</time>
      </trkpt>
      <trkpt lat="45.6" lon="6.66305">
        <ele>1657.4000244141</ele>
        <time>2012-03-25T05:17:27.000Z</time>
      </trkpt>
      <trkpt lat="45.60001" lon="6.66286">
        <ele>1660</ele>
        <time>2012-03-25T05:17:41.000Z</time>
      </trkpt>
      <trkpt lat="45.60003" lon="6.66273">
        <ele>1662.8000488281</ele>
        <time>2012-03-25T05:17:53.000Z</time>
      </trkpt>
      <trkpt lat="45.6001" lon="6.66263">
        <ele>1667.1999511719</ele>
        <time>2012-03-25T05:18:12.000Z</time>
      </trkpt>
      <trkpt lat="45.60016" lon="6.66258">
        <ele>1670</ele>
        <time>2012-03-25T05:18:25.000Z</time>
      </trkpt>
      <trkpt lat="45.60025" lon="6.66251">
        <ele>1674.4000244141</ele>
        <time>2012-03-25T05:18:43.000Z</time>
      </trkpt>
      <trkpt lat="45.60027" lon="6.66247">
        <ele>1675.8000488281</ele>
        <time>2012-03-25T05:18:51.000Z</time>
      </trkpt>
      <trkpt lat="45.60029" lon="6.6624">
        <ele>1677.8000488281</ele>
        <time>2012-03-25T05:19:04.000Z</time>
      </trkpt>
      <trkpt lat="45.60031" lon="6.66238">
        <ele>1678.8000488281</ele>
        <time>2012-03-25T05:19:23.000Z</time>
      </trkpt>
      <trkpt lat="45.60032" lon="6.6624">
        <ele>1678.5999755859</ele>
        <time>2012-03-25T05:19:39.000Z</time>
      </trkpt>
      <trkpt lat="45.60031" lon="6.6624">
        <ele>1678.5999755859</ele>
        <time>2012-03-25T05:19:52.000Z</time>
      </trkpt>
      <trkpt lat="45.60033" lon="6.6624">
        <ele>1679</ele>
        <time>2012-03-25T05:20:14.000Z</time>
      </trkpt>
      <trkpt lat="45.60033" lon="6.6624">
        <ele>1679.1999511719</ele>
        <time>2012-03-25T05:20:30.000Z</time>
      </trkpt>
      <trkpt lat="45.60032" lon="6.66234">
        <ele>1679.5999755859</ele>
        <time>2012-03-25T05:20:57.000Z</time>
      </trkpt>
      <trkpt lat="45.60033" lon="6.66227">
        <ele>1680.8000488281</ele>
        <time>2012-03-25T05:21:06.000Z</time>
      </trkpt>
      <trkpt lat="45.60036" lon="6.66217">
        <ele>1683.4000244141</ele>
        <time>2012-03-25T05:21:18.000Z</time>
      </trkpt>
      <trkpt lat="45.60037" lon="6.66214">
        <ele>1684.1999511719</ele>
        <time>2012-03-25T05:21:25.000Z</time>
      </trkpt>
      <trkpt lat="45.60037" lon="6.66198">
        <ele>1685.8000488281</ele>
        <time>2012-03-25T05:21:37.000Z</time>
      </trkpt>
      <trkpt lat="45.60034" lon="6.66182">
        <ele>1687.4000244141</ele>
        <time>2012-03-25T05:21:50.000Z</time>
      </trkpt>
      <trkpt lat="45.60033" lon="6.6617">
        <ele>1688.4000244141</ele>
        <time>2012-03-25T05:22:01.000Z</time>
      </trkpt>
      <trkpt lat="45.6003" lon="6.66147">
        <ele>1692.1999511719</ele>
        <time>2012-03-25T05:22:24.000Z</time>
      </trkpt>
      <trkpt lat="45.60028" lon="6.66134">
        <ele>1694.4000244141</ele>
        <time>2012-03-25T05:22:39.000Z</time>
      </trkpt>
      <trkpt lat="45.60024" lon="6.66123">
        <ele>1696</ele>
        <time>2012-03-25T05:22:53.000Z</time>
      </trkpt>
      <trkpt lat="45.60021" lon="6.66112">
        <ele>1697.5999755859</ele>
        <time>2012-03-25T05:23:07.000Z</time>
      </trkpt>
      <trkpt lat="45.60022" lon="6.66103">
        <ele>1699.8000488281</ele>
        <time>2012-03-25T05:23:18.000Z</time>
      </trkpt>
      <trkpt lat="45.60022" lon="6.66094">
        <ele>1701.4000244141</ele>
        <time>2012-03-25T05:23:28.000Z</time>
      </trkpt>
      <trkpt lat="45.60022" lon="6.66089">
        <ele>1702.4000244141</ele>
        <time>2012-03-25T05:23:35.000Z</time>
      </trkpt>
      <trkpt lat="45.60024" lon="6.66079">
        <ele>1705</ele>
        <time>2012-03-25T05:23:45.000Z</time>
      </trkpt>
      <trkpt lat="45.60024" lon="6.66071">
        <ele>1707.4000244141</ele>
        <time>2012-03-25T05:23:56.000Z</time>
      </trkpt>
      <trkpt lat="45.60026" lon="6.66062">
        <ele>1709.8000488281</ele>
        <time>2012-03-25T05:24:09.000Z</time>
      </trkpt>
      <trkpt lat="45.6003" lon="6.66061">
        <ele>1711</ele>
        <time>2012-03-25T05:24:28.000Z</time>
      </trkpt>
      <trkpt lat="45.60031" lon="6.66064">
        <ele>1710.5999755859</ele>
        <time>2012-03-25T05:24:39.000Z</time>
      </trkpt>
      <trkpt lat="45.60035" lon="6.66058">
        <ele>1712.4000244141</ele>
        <time>2012-03-25T05:24:57.000Z</time>
      </trkpt>
      <trkpt lat="45.60035" lon="6.66054">
        <ele>1713.5999755859</ele>
        <time>2012-03-25T05:25:08.000Z</time>
      </trkpt>
      <trkpt lat="45.60035" lon="6.66046">
        <ele>1715.4000244141</ele>
        <time>2012-03-25T05:25:18.000Z</time>
      </trkpt>
      <trkpt lat="45.60035" lon="6.66038">
        <ele>1717.1999511719</ele>
        <time>2012-03-25T05:25:27.000Z</time>
      </trkpt>
      <trkpt lat="45.60036" lon="6.66032">
        <ele>1719.1999511719</ele>
        <time>2012-03-25T05:25:37.000Z</time>
      </trkpt>
      <trkpt lat="45.60038" lon="6.66025">
        <ele>1720.8000488281</ele>
        <time>2012-03-25T05:25:48.000Z</time>
      </trkpt>
      <trkpt lat="45.60045" lon="6.66027">
        <ele>1721.8000488281</ele>
        <time>2012-03-25T05:26:05.000Z</time>
      </trkpt>
      <trkpt lat="45.6005" lon="6.6603">
        <ele>1722</ele>
        <time>2012-03-25T05:26:18.000Z</time>
      </trkpt>
      <trkpt lat="45.60056" lon="6.66031">
        <ele>1722.8000488281</ele>
        <time>2012-03-25T05:26:28.000Z</time>
      </trkpt>
      <trkpt lat="45.60059" lon="6.66031">
        <ele>1723.4000244141</ele>
        <time>2012-03-25T05:26:52.000Z</time>
      </trkpt>
      <trkpt lat="45.60062" lon="6.66032">
        <ele>1723.5999755859</ele>
        <time>2012-03-25T05:27:04.000Z</time>
      </trkpt>
      <trkpt lat="45.60064" lon="6.66029">
        <ele>1724.5999755859</ele>
        <time>2012-03-25T05:27:23.000Z</time>
      </trkpt>
      <trkpt lat="45.60066" lon="6.66024">
        <ele>1726.1999511719</ele>
        <time>2012-03-25T05:27:34.000Z</time>
      </trkpt>
      <trkpt lat="45.60072" lon="6.6602">
        <ele>1727.8000488281</ele>
        <time>2012-03-25T05:27:47.000Z</time>
      </trkpt>
      <trkpt lat="45.60071" lon="6.66012">
        <ele>1729.5999755859</ele>
        <time>2012-03-25T05:28:00.000Z</time>
      </trkpt>
      <trkpt lat="45.60084" lon="6.66007">
        <ele>1732.8000488281</ele>
        <time>2012-03-25T05:28:20.000Z</time>
      </trkpt>
      <trkpt lat="45.60085" lon="6.65997">
        <ele>1735.1999511719</ele>
        <time>2012-03-25T05:28:34.000Z</time>
      </trkpt>
      <trkpt lat="45.60084" lon="6.65992">
        <ele>1735.5999755859</ele>
        <time>2012-03-25T05:28:43.000Z</time>
      </trkpt>
      <trkpt lat="45.60083" lon="6.65981">
        <ele>1736.5999755859</ele>
        <time>2012-03-25T05:28:56.000Z</time>
      </trkpt>
      <trkpt lat="45.60076" lon="6.65962">
        <ele>1738.5999755859</ele>
        <time>2012-03-25T05:29:12.000Z</time>
      </trkpt>
      <trkpt lat="45.60072" lon="6.65946">
        <ele>1740.5999755859</ele>
        <time>2012-03-25T05:29:26.000Z</time>
      </trkpt>
      <trkpt lat="45.60074" lon="6.65934">
        <ele>1742.5999755859</ele>
        <time>2012-03-25T05:29:40.000Z</time>
      </trkpt>
      <trkpt lat="45.6008" lon="6.65935">
        <ele>1743</ele>
        <time>2012-03-25T05:29:51.000Z</time>
      </trkpt>
      <trkpt lat="45.60084" lon="6.65928">
        <ele>1744.8000488281</ele>
        <time>2012-03-25T05:30:01.000Z</time>
      </trkpt>
      <trkpt lat="45.60087" lon="6.65923">
        <ele>1746.8000488281</ele>
        <time>2012-03-25T05:30:10.000Z</time>
      </trkpt>
      <trkpt lat="45.60091" lon="6.65914">
        <ele>1749.5999755859</ele>
        <time>2012-03-25T05:30:25.000Z</time>
      </trkpt>
      <trkpt lat="45.60097" lon="6.65913">
        <ele>1752</ele>
        <time>2012-03-25T05:30:35.000Z</time>
      </trkpt>
      <trkpt lat="45.60096" lon="6.65902">
        <ele>1753</ele>
        <time>2012-03-25T05:30:45.000Z</time>
      </trkpt>
      <trkpt lat="45.60092" lon="6.65873">
        <ele>1755.4000244141</ele>
        <time>2012-03-25T05:31:09.000Z</time>
      </trkpt>
      <trkpt lat="45.60092" lon="6.65857">
        <ele>1757.5999755859</ele>
        <time>2012-03-25T05:31:22.000Z</time>
      </trkpt>
      <trkpt lat="45.60092" lon="6.65841">
        <ele>1759.8000488281</ele>
        <time>2012-03-25T05:31:35.000Z</time>
      </trkpt>
      <trkpt lat="45.60093" lon="6.65827">
        <ele>1761.8000488281</ele>
        <time>2012-03-25T05:31:47.000Z</time>
      </trkpt>
      <trkpt lat="45.60093" lon="6.65812">
        <ele>1763.8000488281</ele>
        <time>2012-03-25T05:32:00.000Z</time>
      </trkpt>
      <trkpt lat="45.60093" lon="6.65798">
        <ele>1765.8000488281</ele>
        <time>2012-03-25T05:32:12.000Z</time>
      </trkpt>
      <trkpt lat="45.60094" lon="6.65788">
        <ele>1767</ele>
        <time>2012-03-25T05:32:20.000Z</time>
      </trkpt>
      <trkpt lat="45.60095" lon="6.65769">
        <ele>1770</ele>
        <time>2012-03-25T05:32:36.000Z</time>
      </trkpt>
      <trkpt lat="45.60095" lon="6.65754">
        <ele>1771.5999755859</ele>
        <time>2012-03-25T05:32:50.000Z</time>
      </trkpt>
      <trkpt lat="45.60101" lon="6.65745">
        <ele>1774.8000488281</ele>
        <time>2012-03-25T05:33:04.000Z</time>
      </trkpt>
      <trkpt lat="45.60111" lon="6.6576">
        <ele>1775.5999755859</ele>
        <time>2012-03-25T05:33:24.000Z</time>
      </trkpt>
      <trkpt lat="45.60115" lon="6.65761">
        <ele>1776.4000244141</ele>
        <time>2012-03-25T05:33:35.000Z</time>
      </trkpt>
      <trkpt lat="45.6012" lon="6.65751">
        <ele>1779</ele>
        <time>2012-03-25T05:33:49.000Z</time>
      </trkpt>
      <trkpt lat="45.60125" lon="6.65742">
        <ele>1781.4000244141</ele>
        <time>2012-03-25T05:34:00.000Z</time>
      </trkpt>
      <trkpt lat="45.60129" lon="6.65736">
        <ele>1783.4000244141</ele>
        <time>2012-03-25T05:34:12.000Z</time>
      </trkpt>
      <trkpt lat="45.60135" lon="6.65728">
        <ele>1785.5999755859</ele>
        <time>2012-03-25T05:34:28.000Z</time>
      </trkpt>
      <trkpt lat="45.60138" lon="6.65722">
        <ele>1787</ele>
        <time>2012-03-25T05:34:37.000Z</time>
      </trkpt>
      <trkpt lat="45.60142" lon="6.65717">
        <ele>1788.4000244141</ele>
        <time>2012-03-25T05:34:48.000Z</time>
      </trkpt>
      <trkpt lat="45.60147" lon="6.65713">
        <ele>1789.8000488281</ele>
        <time>2012-03-25T05:35:01.000Z</time>
      </trkpt>
      <trkpt lat="45.6015" lon="6.65709">
        <ele>1790.5999755859</ele>
        <time>2012-03-25T05:35:18.000Z</time>
      </trkpt>
      <trkpt lat="45.60155" lon="6.65703">
        <ele>1792</ele>
        <time>2012-03-25T05:35:29.000Z</time>
      </trkpt>
      <trkpt lat="45.60159" lon="6.65695">
        <ele>1793.1999511719</ele>
        <time>2012-03-25T05:35:41.000Z</time>
      </trkpt>
      <trkpt lat="45.60163" lon="6.6569">
        <ele>1794.4000244141</ele>
        <time>2012-03-25T05:35:54.000Z</time>
      </trkpt>
      <trkpt lat="45.60169" lon="6.65684">
        <ele>1796.4000244141</ele>
        <time>2012-03-25T05:36:08.000Z</time>
      </trkpt>
      <trkpt lat="45.60174" lon="6.65682">
        <ele>1798.8000488281</ele>
        <time>2012-03-25T05:36:20.000Z</time>
      </trkpt>
      <trkpt lat="45.6018" lon="6.65675">
        <ele>1801.8000488281</ele>
        <time>2012-03-25T05:36:33.000Z</time>
      </trkpt>
      <trkpt lat="45.60184" lon="6.65669">
        <ele>1804</ele>
        <time>2012-03-25T05:36:43.000Z</time>
      </trkpt>
      <trkpt lat="45.60189" lon="6.65661">
        <ele>1806.5999755859</ele>
        <time>2012-03-25T05:36:56.000Z</time>
      </trkpt>
      <trkpt lat="45.60193" lon="6.65654">
        <ele>1809.1999511719</ele>
        <time>2012-03-25T05:37:10.000Z</time>
      </trkpt>
      <trkpt lat="45.60197" lon="6.6566">
        <ele>1810.5999755859</ele>
        <time>2012-03-25T05:37:22.000Z</time>
      </trkpt>
      <trkpt lat="45.60202" lon="6.65668">
        <ele>1812</ele>
        <time>2012-03-25T05:37:34.000Z</time>
      </trkpt>
      <trkpt lat="45.60208" lon="6.65674">
        <ele>1814.5999755859</ele>
        <time>2012-03-25T05:37:48.000Z</time>
      </trkpt>
      <trkpt lat="45.60212" lon="6.65677">
        <ele>1816.1999511719</ele>
        <time>2012-03-25T05:37:59.000Z</time>
      </trkpt>
      <trkpt lat="45.60217" lon="6.65684">
        <ele>1818.4000244141</ele>
        <time>2012-03-25T05:38:11.000Z</time>
      </trkpt>
      <trkpt lat="45.60219" lon="6.65688">
        <ele>1819.4000244141</ele>
        <time>2012-03-25T05:38:24.000Z</time>
      </trkpt>
      <trkpt lat="45.60226" lon="6.65676">
        <ele>1822.5999755859</ele>
        <time>2012-03-25T05:38:43.000Z</time>
      </trkpt>
      <trkpt lat="45.6023" lon="6.65669">
        <ele>1824.8000488281</ele>
        <time>2012-03-25T05:38:54.000Z</time>
      </trkpt>
      <trkpt lat="45.60234" lon="6.65662">
        <ele>1826.5999755859</ele>
        <time>2012-03-25T05:39:06.000Z</time>
      </trkpt>
      <trkpt lat="45.60237" lon="6.65655">
        <ele>1828.1999511719</ele>
        <time>2012-03-25T05:39:16.000Z</time>
      </trkpt>
      <trkpt lat="45.60241" lon="6.6565">
        <ele>1830</ele>
        <time>2012-03-25T05:39:24.000Z</time>
      </trkpt>
      <trkpt lat="45.60246" lon="6.65641">
        <ele>1832.1999511719</ele>
        <time>2012-03-25T05:39:38.000Z</time>
      </trkpt>
      <trkpt lat="45.60251" lon="6.6563">
        <ele>1834.4000244141</ele>
        <time>2012-03-25T05:39:55.000Z</time>
      </trkpt>
      <trkpt lat="45.60255" lon="6.65624">
        <ele>1836.1999511719</ele>
        <time>2012-03-25T05:40:05.000Z</time>
      </trkpt>
      <trkpt lat="45.60261" lon="6.65619">
        <ele>1839</ele>
        <time>2012-03-25T05:40:17.000Z</time>
      </trkpt>
      <trkpt lat="45.60268" lon="6.65611">
        <ele>1841.8000488281</ele>
        <time>2012-03-25T05:40:33.000Z</time>
      </trkpt>
      <trkpt lat="45.60273" lon="6.65604">
        <ele>1843.5999755859</ele>
        <time>2012-03-25T05:40:46.000Z</time>
      </trkpt>
      <trkpt lat="45.60277" lon="6.656">
        <ele>1845.5999755859</ele>
        <time>2012-03-25T05:40:59.000Z</time>
      </trkpt>
      <trkpt lat="45.60282" lon="6.65594">
        <ele>1847.5999755859</ele>
        <time>2012-03-25T05:41:10.000Z</time>
      </trkpt>
      <trkpt lat="45.60287" lon="6.65588">
        <ele>1849.4000244141</ele>
        <time>2012-03-25T05:41:21.000Z</time>
      </trkpt>
      <trkpt lat="45.60297" lon="6.65583">
        <ele>1853.4000244141</ele>
        <time>2012-03-25T05:41:40.000Z</time>
      </trkpt>
      <trkpt lat="45.60307" lon="6.6558">
        <ele>1857</ele>
        <time>2012-03-25T05:41:56.000Z</time>
      </trkpt>
      <trkpt lat="45.60313" lon="6.65577">
        <ele>1859.1999511719</ele>
        <time>2012-03-25T05:42:07.000Z</time>
      </trkpt>
      <trkpt lat="45.60319" lon="6.65572">
        <ele>1861.5999755859</ele>
        <time>2012-03-25T05:42:18.000Z</time>
      </trkpt>
      <trkpt lat="45.60326" lon="6.65568">
        <ele>1863.8000488281</ele>
        <time>2012-03-25T05:42:30.000Z</time>
      </trkpt>
      <trkpt lat="45.60331" lon="6.65564">
        <ele>1865.5999755859</ele>
        <time>2012-03-25T05:42:40.000Z</time>
      </trkpt>
      <trkpt lat="45.60337" lon="6.6556">
        <ele>1867.4000244141</ele>
        <time>2012-03-25T05:42:50.000Z</time>
      </trkpt>
      <trkpt lat="45.60343" lon="6.65555">
        <ele>1869</ele>
        <time>2012-03-25T05:43:02.000Z</time>
      </trkpt>
      <trkpt lat="45.60351" lon="6.65548">
        <ele>1870.8000488281</ele>
        <time>2012-03-25T05:43:15.000Z</time>
      </trkpt>
      <trkpt lat="45.60359" lon="6.65544">
        <ele>1873</ele>
        <time>2012-03-25T05:43:29.000Z</time>
      </trkpt>
      <trkpt lat="45.60365" lon="6.65541">
        <ele>1874.5999755859</ele>
        <time>2012-03-25T05:43:39.000Z</time>
      </trkpt>
      <trkpt lat="45.60372" lon="6.65538">
        <ele>1876.5999755859</ele>
        <time>2012-03-25T05:43:52.000Z</time>
      </trkpt>
      <trkpt lat="45.60378" lon="6.65535">
        <ele>1878.4000244141</ele>
        <time>2012-03-25T05:44:03.000Z</time>
      </trkpt>
      <trkpt lat="45.60385" lon="6.65534">
        <ele>1880.1999511719</ele>
        <time>2012-03-25T05:44:16.000Z</time>
      </trkpt>
      <trkpt lat="45.60392" lon="6.65534">
        <ele>1882.5999755859</ele>
        <time>2012-03-25T05:44:27.000Z</time>
      </trkpt>
      <trkpt lat="45.60403" lon="6.65534">
        <ele>1885.8000488281</ele>
        <time>2012-03-25T05:44:45.000Z</time>
      </trkpt>
      <trkpt lat="45.60409" lon="6.65533">
        <ele>1887.8000488281</ele>
        <time>2012-03-25T05:45:01.000Z</time>
      </trkpt>
      <trkpt lat="45.60418" lon="6.65532">
        <ele>1890.4000244141</ele>
        <time>2012-03-25T05:45:14.000Z</time>
      </trkpt>
      <trkpt lat="45.60428" lon="6.65532">
        <ele>1893.5999755859</ele>
        <time>2012-03-25T05:45:28.000Z</time>
      </trkpt>
      <trkpt lat="45.60437" lon="6.65533">
        <ele>1896.8000488281</ele>
        <time>2012-03-25T05:45:41.000Z</time>
      </trkpt>
      <trkpt lat="45.60442" lon="6.65533">
        <ele>1898.1999511719</ele>
        <time>2012-03-25T05:45:50.000Z</time>
      </trkpt>
      <trkpt lat="45.6045" lon="6.6553">
        <ele>1900.1999511719</ele>
        <time>2012-03-25T05:46:04.000Z</time>
      </trkpt>
      <trkpt lat="45.60456" lon="6.65528">
        <ele>1902</ele>
        <time>2012-03-25T05:46:17.000Z</time>
      </trkpt>
      <trkpt lat="45.60464" lon="6.65529">
        <ele>1904.4000244141</ele>
        <time>2012-03-25T05:46:29.000Z</time>
      </trkpt>
      <trkpt lat="45.60467" lon="6.65546">
        <ele>1908</ele>
        <time>2012-03-25T05:46:47.000Z</time>
      </trkpt>
      <trkpt lat="45.60469" lon="6.65557">
        <ele>1910.1999511719</ele>
        <time>2012-03-25T05:47:00.000Z</time>
      </trkpt>
      <trkpt lat="45.60469" lon="6.65568">
        <ele>1911.8000488281</ele>
        <time>2012-03-25T05:47:11.000Z</time>
      </trkpt>
      <trkpt lat="45.60469" lon="6.65574">
        <ele>1912.8000488281</ele>
        <time>2012-03-25T05:47:17.000Z</time>
      </trkpt>
      <trkpt lat="45.60462" lon="6.6559">
        <ele>1913.1999511719</ele>
        <time>2012-03-25T05:47:37.000Z</time>
      </trkpt>
      <trkpt lat="45.60458" lon="6.656">
        <ele>1913.1999511719</ele>
        <time>2012-03-25T05:47:49.000Z</time>
      </trkpt>
      <trkpt lat="45.60455" lon="6.65607">
        <ele>1913.1999511719</ele>
        <time>2012-03-25T05:47:59.000Z</time>
      </trkpt>
      <trkpt lat="45.60447" lon="6.65617">
        <ele>1912.1999511719</ele>
        <time>2012-03-25T05:48:12.000Z</time>
      </trkpt>
      <trkpt lat="45.60443" lon="6.65625">
        <ele>1912</ele>
        <time>2012-03-25T05:48:26.000Z</time>
      </trkpt>
      <trkpt lat="45.60446" lon="6.65638">
        <ele>1914.8000488281</ele>
        <time>2012-03-25T05:48:43.000Z</time>
      </trkpt>
      <trkpt lat="45.60451" lon="6.65648">
        <ele>1917.8000488281</ele>
        <time>2012-03-25T05:48:56.000Z</time>
      </trkpt>
      <trkpt lat="45.60454" lon="6.6565">
        <ele>1919</ele>
        <time>2012-03-25T05:49:03.000Z</time>
      </trkpt>
      <trkpt lat="45.60457" lon="6.65651">
        <ele>1920</ele>
        <time>2012-03-25T05:49:16.000Z</time>
      </trkpt>
      <trkpt lat="45.60472" lon="6.65657">
        <ele>1925.4000244141</ele>
        <time>2012-03-25T05:49:35.000Z</time>
      </trkpt>
      <trkpt lat="45.60483" lon="6.65671">
        <ele>1930.8000488281</ele>
        <time>2012-03-25T05:49:57.000Z</time>
      </trkpt>
      <trkpt lat="45.60489" lon="6.65675">
        <ele>1933.4000244141</ele>
        <time>2012-03-25T05:50:12.000Z</time>
      </trkpt>
      <trkpt lat="45.60495" lon="6.6568">
        <ele>1936.4000244141</ele>
        <time>2012-03-25T05:50:29.000Z</time>
      </trkpt>
      <trkpt lat="45.605" lon="6.65684">
        <ele>1939.1999511719</ele>
        <time>2012-03-25T05:50:40.000Z</time>
      </trkpt>
      <trkpt lat="45.60504" lon="6.65688">
        <ele>1941</ele>
        <time>2012-03-25T05:50:53.000Z</time>
      </trkpt>
      <trkpt lat="45.60508" lon="6.6569">
        <ele>1942.4000244141</ele>
        <time>2012-03-25T05:51:01.000Z</time>
      </trkpt>
      <trkpt lat="45.60517" lon="6.65694">
        <ele>1945.4000244141</ele>
        <time>2012-03-25T05:51:16.000Z</time>
      </trkpt>
      <trkpt lat="45.60522" lon="6.65697">
        <ele>1947.1999511719</ele>
        <time>2012-03-25T05:51:26.000Z</time>
      </trkpt>
      <trkpt lat="45.60528" lon="6.65702">
        <ele>1950</ele>
        <time>2012-03-25T05:51:38.000Z</time>
      </trkpt>
      <trkpt lat="45.60533" lon="6.65704">
        <ele>1951.5999755859</ele>
        <time>2012-03-25T05:51:50.000Z</time>
      </trkpt>
      <trkpt lat="45.60539" lon="6.65706">
        <ele>1953.5999755859</ele>
        <time>2012-03-25T05:52:03.000Z</time>
      </trkpt>
      <trkpt lat="45.60544" lon="6.65708">
        <ele>1955.1999511719</ele>
        <time>2012-03-25T05:52:17.000Z</time>
      </trkpt>
      <trkpt lat="45.60546" lon="6.65711">
        <ele>1956.4000244141</ele>
        <time>2012-03-25T05:52:25.000Z</time>
      </trkpt>
      <trkpt lat="45.60537" lon="6.65722">
        <ele>1957</ele>
        <time>2012-03-25T05:52:41.000Z</time>
      </trkpt>
      <trkpt lat="45.60532" lon="6.65731">
        <ele>1957.5999755859</ele>
        <time>2012-03-25T05:52:54.000Z</time>
      </trkpt>
      <trkpt lat="45.6053" lon="6.65739">
        <ele>1959.1999511719</ele>
        <time>2012-03-25T05:53:08.000Z</time>
      </trkpt>
      <trkpt lat="45.60538" lon="6.65743">
        <ele>1961.8000488281</ele>
        <time>2012-03-25T05:53:21.000Z</time>
      </trkpt>
      <trkpt lat="45.60543" lon="6.65751">
        <ele>1964.8000488281</ele>
        <time>2012-03-25T05:53:34.000Z</time>
      </trkpt>
      <trkpt lat="45.60545" lon="6.65758">
        <ele>1966.8000488281</ele>
        <time>2012-03-25T05:53:44.000Z</time>
      </trkpt>
      <trkpt lat="45.60552" lon="6.65768">
        <ele>1970.5999755859</ele>
        <time>2012-03-25T05:54:00.000Z</time>
      </trkpt>
      <trkpt lat="45.60559" lon="6.65779">
        <ele>1974.5999755859</ele>
        <time>2012-03-25T05:54:16.000Z</time>
      </trkpt>
      <trkpt lat="45.60564" lon="6.65794">
        <ele>1979.1999511719</ele>
        <time>2012-03-25T05:54:34.000Z</time>
      </trkpt>
      <trkpt lat="45.60564" lon="6.65809">
        <ele>1982.1999511719</ele>
        <time>2012-03-25T05:54:50.000Z</time>
      </trkpt>
      <trkpt lat="45.60563" lon="6.65822">
        <ele>1984.4000244141</ele>
        <time>2012-03-25T05:55:04.000Z</time>
      </trkpt>
      <trkpt lat="45.60566" lon="6.65838">
        <ele>1988</ele>
        <time>2012-03-25T05:55:22.000Z</time>
      </trkpt>
      <trkpt lat="45.60569" lon="6.65856">
        <ele>1990.5999755859</ele>
        <time>2012-03-25T05:55:41.000Z</time>
      </trkpt>
      <trkpt lat="45.60571" lon="6.65874">
        <ele>1993</ele>
        <time>2012-03-25T05:55:59.000Z</time>
      </trkpt>
      <trkpt lat="45.60576" lon="6.65888">
        <ele>1996</ele>
        <time>2012-03-25T05:56:14.000Z</time>
      </trkpt>
      <trkpt lat="45.60583" lon="6.65904">
        <ele>1999.4000244141</ele>
        <time>2012-03-25T05:56:30.000Z</time>
      </trkpt>
      <trkpt lat="45.60588" lon="6.65916">
        <ele>2002.1999511719</ele>
        <time>2012-03-25T05:56:44.000Z</time>
      </trkpt>
      <trkpt lat="45.60594" lon="6.65929">
        <ele>2004</ele>
        <time>2012-03-25T05:56:59.000Z</time>
      </trkpt>
      <trkpt lat="45.60601" lon="6.65939">
        <ele>2006.1999511719</ele>
        <time>2012-03-25T05:57:14.000Z</time>
      </trkpt>
      <trkpt lat="45.60609" lon="6.65947">
        <ele>2008.8000488281</ele>
        <time>2012-03-25T05:57:29.000Z</time>
      </trkpt>
      <trkpt lat="45.60616" lon="6.65952">
        <ele>2010.8000488281</ele>
        <time>2012-03-25T05:57:40.000Z</time>
      </trkpt>
      <trkpt lat="45.60627" lon="6.65959">
        <ele>2014.1999511719</ele>
        <time>2012-03-25T05:57:58.000Z</time>
      </trkpt>
      <trkpt lat="45.60635" lon="6.65963">
        <ele>2016.8000488281</ele>
        <time>2012-03-25T05:58:11.000Z</time>
      </trkpt>
      <trkpt lat="45.60645" lon="6.65968">
        <ele>2020.1999511719</ele>
        <time>2012-03-25T05:58:28.000Z</time>
      </trkpt>
      <trkpt lat="45.60653" lon="6.65971">
        <ele>2022.8000488281</ele>
        <time>2012-03-25T05:58:40.000Z</time>
      </trkpt>
      <trkpt lat="45.60664" lon="6.65973">
        <ele>2026.1999511719</ele>
        <time>2012-03-25T05:58:55.000Z</time>
      </trkpt>
      <trkpt lat="45.60676" lon="6.65976">
        <ele>2029.4000244141</ele>
        <time>2012-03-25T05:59:11.000Z</time>
      </trkpt>
      <trkpt lat="45.60688" lon="6.65977">
        <ele>2032.4000244141</ele>
        <time>2012-03-25T05:59:27.000Z</time>
      </trkpt>
      <trkpt lat="45.60689" lon="6.65977">
        <ele>2032.5999755859</ele>
        <time>2012-03-25T05:59:51.000Z</time>
      </trkpt>
      <trkpt lat="45.60689" lon="6.65977">
        <ele>2032.5999755859</ele>
        <time>2012-03-25T06:00:01.000Z</time>
      </trkpt>
      <trkpt lat="45.60688" lon="6.65977">
        <ele>2032.4000244141</ele>
        <time>2012-03-25T06:00:19.000Z</time>
      </trkpt>
      <trkpt lat="45.60688" lon="6.65977">
        <ele>2032.4000244141</ele>
        <time>2012-03-25T06:00:28.000Z</time>
      </trkpt>
      <trkpt lat="45.60688" lon="6.65977">
        <ele>2032.5999755859</ele>
        <time>2012-03-25T06:00:42.000Z</time>
      </trkpt>
      <trkpt lat="45.60687" lon="6.65977">
        <ele>2032.1999511719</ele>
        <time>2012-03-25T06:01:01.000Z</time>
      </trkpt>
      <trkpt lat="45.60687" lon="6.65978">
        <ele>2032.1999511719</ele>
        <time>2012-03-25T06:01:21.000Z</time>
      </trkpt>
      <trkpt lat="45.60687" lon="6.65977">
        <ele>2032.1999511719</ele>
        <time>2012-03-25T06:01:42.000Z</time>
      </trkpt>
      <trkpt lat="45.60687" lon="6.65977">
        <ele>2032.1999511719</ele>
        <time>2012-03-25T06:01:57.000Z</time>
      </trkpt>
      <trkpt lat="45.60689" lon="6.65977">
        <ele>2032.5999755859</ele>
        <time>2012-03-25T06:02:15.000Z</time>
      </trkpt>
      <trkpt lat="45.6069" lon="6.65977">
        <ele>2033</ele>
        <time>2012-03-25T06:02:19.000Z</time>
      </trkpt>
      <trkpt lat="45.60697" lon="6.65976">
        <ele>2034.5999755859</ele>
        <time>2012-03-25T06:02:29.000Z</time>
      </trkpt>
      <trkpt lat="45.60699" lon="6.65976">
        <ele>2035.1999511719</ele>
        <time>2012-03-25T06:02:39.000Z</time>
      </trkpt>
      <trkpt lat="45.60707" lon="6.65975">
        <ele>2037.1999511719</ele>
        <time>2012-03-25T06:02:54.000Z</time>
      </trkpt>
      <trkpt lat="45.60713" lon="6.65975">
        <ele>2038.5999755859</ele>
        <time>2012-03-25T06:03:01.000Z</time>
      </trkpt>
      <trkpt lat="45.60715" lon="6.65975">
        <ele>2039</ele>
        <time>2012-03-25T06:03:13.000Z</time>
      </trkpt>
      <trkpt lat="45.60727" lon="6.65976">
        <ele>2042</ele>
        <time>2012-03-25T06:03:29.000Z</time>
      </trkpt>
      <trkpt lat="45.60731" lon="6.65969">
        <ele>2043</ele>
        <time>2012-03-25T06:03:42.000Z</time>
      </trkpt>
      <trkpt lat="45.60734" lon="6.65958">
        <ele>2043.4000244141</ele>
        <time>2012-03-25T06:03:54.000Z</time>
      </trkpt>
      <trkpt lat="45.60739" lon="6.65947">
        <ele>2044.5999755859</ele>
        <time>2012-03-25T06:04:08.000Z</time>
      </trkpt>
      <trkpt lat="45.60748" lon="6.65934">
        <ele>2046.5999755859</ele>
        <time>2012-03-25T06:04:28.000Z</time>
      </trkpt>
      <trkpt lat="45.60754" lon="6.65927">
        <ele>2048.1999511719</ele>
        <time>2012-03-25T06:04:42.000Z</time>
      </trkpt>
      <trkpt lat="45.6076" lon="6.65921">
        <ele>2049.3999023438</ele>
        <time>2012-03-25T06:04:54.000Z</time>
      </trkpt>
      <trkpt lat="45.60767" lon="6.65917">
        <ele>2050.8000488281</ele>
        <time>2012-03-25T06:05:06.000Z</time>
      </trkpt>
      <trkpt lat="45.60773" lon="6.65915">
        <ele>2052</ele>
        <time>2012-03-25T06:05:17.000Z</time>
      </trkpt>
      <trkpt lat="45.60783" lon="6.65916">
        <ele>2054.1999511719</ele>
        <time>2012-03-25T06:05:30.000Z</time>
      </trkpt>
      <trkpt lat="45.60792" lon="6.65917">
        <ele>2056.6000976562</ele>
        <time>2012-03-25T06:05:45.000Z</time>
      </trkpt>
      <trkpt lat="45.608" lon="6.65919">
        <ele>2058.3999023438</ele>
        <time>2012-03-25T06:05:57.000Z</time>
      </trkpt>
      <trkpt lat="45.60808" lon="6.65919">
        <ele>2060.1999511719</ele>
        <time>2012-03-25T06:06:09.000Z</time>
      </trkpt>
      <trkpt lat="45.60818" lon="6.65917">
        <ele>2062.6000976562</ele>
        <time>2012-03-25T06:06:28.000Z</time>
      </trkpt>
      <trkpt lat="45.60829" lon="6.65918">
        <ele>2065.1999511719</ele>
        <time>2012-03-25T06:06:44.000Z</time>
      </trkpt>
      <trkpt lat="45.60836" lon="6.65918">
        <ele>2067.1999511719</ele>
        <time>2012-03-25T06:06:55.000Z</time>
      </trkpt>
      <trkpt lat="45.60844" lon="6.65918">
        <ele>2069.8000488281</ele>
        <time>2012-03-25T06:07:09.000Z</time>
      </trkpt>
      <trkpt lat="45.6085" lon="6.65918">
        <ele>2071.8000488281</ele>
        <time>2012-03-25T06:07:20.000Z</time>
      </trkpt>
      <trkpt lat="45.60857" lon="6.65918">
        <ele>2074.3999023438</ele>
        <time>2012-03-25T06:07:33.000Z</time>
      </trkpt>
      <trkpt lat="45.60865" lon="6.65918">
        <ele>2077</ele>
        <time>2012-03-25T06:07:45.000Z</time>
      </trkpt>
      <trkpt lat="45.60873" lon="6.6592">
        <ele>2079.8000488281</ele>
        <time>2012-03-25T06:07:59.000Z</time>
      </trkpt>
      <trkpt lat="45.6088" lon="6.65921">
        <ele>2082.3999023438</ele>
        <time>2012-03-25T06:08:11.000Z</time>
      </trkpt>
      <trkpt lat="45.6089" lon="6.65921">
        <ele>2085.8000488281</ele>
        <time>2012-03-25T06:08:26.000Z</time>
      </trkpt>
      <trkpt lat="45.60896" lon="6.65922">
        <ele>2088</ele>
        <time>2012-03-25T06:08:37.000Z</time>
      </trkpt>
      <trkpt lat="45.60905" lon="6.65923">
        <ele>2091</ele>
        <time>2012-03-25T06:08:51.000Z</time>
      </trkpt>
      <trkpt lat="45.60913" lon="6.65924">
        <ele>2093.8000488281</ele>
        <time>2012-03-25T06:09:03.000Z</time>
      </trkpt>
      <trkpt lat="45.60919" lon="6.65924">
        <ele>2095.8000488281</ele>
        <time>2012-03-25T06:09:15.000Z</time>
      </trkpt>
      <trkpt lat="45.60926" lon="6.65924">
        <ele>2098</ele>
        <time>2012-03-25T06:09:27.000Z</time>
      </trkpt>
      <trkpt lat="45.60937" lon="6.65922">
        <ele>2101.3999023438</ele>
        <time>2012-03-25T06:09:46.000Z</time>
      </trkpt>
      <trkpt lat="45.60944" lon="6.6592">
        <ele>2103.1999511719</ele>
        <time>2012-03-25T06:09:59.000Z</time>
      </trkpt>
      <trkpt lat="45.60956" lon="6.65917">
        <ele>2106.6000976562</ele>
        <time>2012-03-25T06:10:19.000Z</time>
      </trkpt>
      <trkpt lat="45.60967" lon="6.65911">
        <ele>2109</ele>
        <time>2012-03-25T06:10:36.000Z</time>
      </trkpt>
      <trkpt lat="45.60976" lon="6.65907">
        <ele>2111</ele>
        <time>2012-03-25T06:10:50.000Z</time>
      </trkpt>
      <trkpt lat="45.60983" lon="6.65904">
        <ele>2112.8000488281</ele>
        <time>2012-03-25T06:11:02.000Z</time>
      </trkpt>
      <trkpt lat="45.60989" lon="6.65898">
        <ele>2113.8000488281</ele>
        <time>2012-03-25T06:11:12.000Z</time>
      </trkpt>
      <trkpt lat="45.60997" lon="6.65892">
        <ele>2115.6000976562</ele>
        <time>2012-03-25T06:11:26.000Z</time>
      </trkpt>
      <trkpt lat="45.61004" lon="6.65887">
        <ele>2117.3999023438</ele>
        <time>2012-03-25T06:11:38.000Z</time>
      </trkpt>
      <trkpt lat="45.61013" lon="6.65878">
        <ele>2119.3999023438</ele>
        <time>2012-03-25T06:11:54.000Z</time>
      </trkpt>
      <trkpt lat="45.61026" lon="6.65872">
        <ele>2123.3999023438</ele>
        <time>2012-03-25T06:12:13.000Z</time>
      </trkpt>
      <trkpt lat="45.61034" lon="6.65869">
        <ele>2126.1999511719</ele>
        <time>2012-03-25T06:12:25.000Z</time>
      </trkpt>
      <trkpt lat="45.61045" lon="6.65869">
        <ele>2130</ele>
        <time>2012-03-25T06:12:41.000Z</time>
      </trkpt>
      <trkpt lat="45.61044" lon="6.65881">
        <ele>2131</ele>
        <time>2012-03-25T06:12:53.000Z</time>
      </trkpt>
      <trkpt lat="45.61047" lon="6.65893">
        <ele>2133.3999023438</ele>
        <time>2012-03-25T06:13:08.000Z</time>
      </trkpt>
      <trkpt lat="45.6105" lon="6.659">
        <ele>2135</ele>
        <time>2012-03-25T06:13:19.000Z</time>
      </trkpt>
      <trkpt lat="45.61055" lon="6.65896">
        <ele>2136.6000976562</ele>
        <time>2012-03-25T06:13:29.000Z</time>
      </trkpt>
      <trkpt lat="45.61062" lon="6.65893">
        <ele>2138.6000976562</ele>
        <time>2012-03-25T06:13:40.000Z</time>
      </trkpt>
      <trkpt lat="45.61072" lon="6.65889">
        <ele>2141.8000488281</ele>
        <time>2012-03-25T06:13:55.000Z</time>
      </trkpt>
      <trkpt lat="45.61079" lon="6.65887">
        <ele>2144</ele>
        <time>2012-03-25T06:14:09.000Z</time>
      </trkpt>
      <trkpt lat="45.61087" lon="6.65881">
        <ele>2146.3999023438</ele>
        <time>2012-03-25T06:14:21.000Z</time>
      </trkpt>
      <trkpt lat="45.61094" lon="6.65874">
        <ele>2148.3999023438</ele>
        <time>2012-03-25T06:14:37.000Z</time>
      </trkpt>
      <trkpt lat="45.61098" lon="6.6587">
        <ele>2149.8000488281</ele>
        <time>2012-03-25T06:14:46.000Z</time>
      </trkpt>
      <trkpt lat="45.61101" lon="6.65867">
        <ele>2150.6000976562</ele>
        <time>2012-03-25T06:14:55.000Z</time>
      </trkpt>
      <trkpt lat="45.61111" lon="6.6586">
        <ele>2153.3999023438</ele>
        <time>2012-03-25T06:15:10.000Z</time>
      </trkpt>
      <trkpt lat="45.61119" lon="6.65856">
        <ele>2156</ele>
        <time>2012-03-25T06:15:23.000Z</time>
      </trkpt>
      <trkpt lat="45.61128" lon="6.65854">
        <ele>2158.8000488281</ele>
        <time>2012-03-25T06:15:36.000Z</time>
      </trkpt>
      <trkpt lat="45.61138" lon="6.65849">
        <ele>2162.1999511719</ele>
        <time>2012-03-25T06:15:52.000Z</time>
      </trkpt>
      <trkpt lat="45.61145" lon="6.65846">
        <ele>2164</ele>
        <time>2012-03-25T06:16:03.000Z</time>
      </trkpt>
      <trkpt lat="45.61154" lon="6.65841">
        <ele>2166.6000976562</ele>
        <time>2012-03-25T06:16:17.000Z</time>
      </trkpt>
      <trkpt lat="45.61161" lon="6.65836">
        <ele>2168.6000976562</ele>
        <time>2012-03-25T06:16:30.000Z</time>
      </trkpt>
      <trkpt lat="45.61168" lon="6.65834">
        <ele>2170.6000976562</ele>
        <time>2012-03-25T06:16:42.000Z</time>
      </trkpt>
      <trkpt lat="45.61177" lon="6.65833">
        <ele>2172.3999023438</ele>
        <time>2012-03-25T06:16:56.000Z</time>
      </trkpt>
      <trkpt lat="45.61187" lon="6.65831">
        <ele>2174.8000488281</ele>
        <time>2012-03-25T06:17:14.000Z</time>
      </trkpt>
      <trkpt lat="45.61196" lon="6.65827">
        <ele>2176.3999023438</ele>
        <time>2012-03-25T06:17:28.000Z</time>
      </trkpt>
      <trkpt lat="45.61201" lon="6.65825">
        <ele>2177.1999511719</ele>
        <time>2012-03-25T06:17:39.000Z</time>
      </trkpt>
      <trkpt lat="45.61207" lon="6.65824">
        <ele>2178.6000976562</ele>
        <time>2012-03-25T06:17:53.000Z</time>
      </trkpt>
      <trkpt lat="45.61216" lon="6.65824">
        <ele>2180.8000488281</ele>
        <time>2012-03-25T06:18:06.000Z</time>
      </trkpt>
      <trkpt lat="45.61223" lon="6.65823">
        <ele>2182.3999023438</ele>
        <time>2012-03-25T06:18:19.000Z</time>
      </trkpt>
      <trkpt lat="45.61232" lon="6.65823">
        <ele>2184.6000976562</ele>
        <time>2012-03-25T06:18:32.000Z</time>
      </trkpt>
      <trkpt lat="45.61241" lon="6.65823">
        <ele>2186.8000488281</ele>
        <time>2012-03-25T06:18:46.000Z</time>
      </trkpt>
      <trkpt lat="45.6125" lon="6.65826">
        <ele>2189.6000976562</ele>
        <time>2012-03-25T06:19:00.000Z</time>
      </trkpt>
      <trkpt lat="45.61258" lon="6.65828">
        <ele>2191</ele>
        <time>2012-03-25T06:19:11.000Z</time>
      </trkpt>
      <trkpt lat="45.61267" lon="6.6583">
        <ele>2192.6000976562</ele>
        <time>2012-03-25T06:19:24.000Z</time>
      </trkpt>
      <trkpt lat="45.61275" lon="6.65831">
        <ele>2194.1999511719</ele>
        <time>2012-03-25T06:19:36.000Z</time>
      </trkpt>
      <trkpt lat="45.61285" lon="6.65833">
        <ele>2196</ele>
        <time>2012-03-25T06:19:51.000Z</time>
      </trkpt>
      <trkpt lat="45.61294" lon="6.65833">
        <ele>2197.1999511719</ele>
        <time>2012-03-25T06:20:02.000Z</time>
      </trkpt>
      <trkpt lat="45.61308" lon="6.65832">
        <ele>2198.8000488281</ele>
        <time>2012-03-25T06:20:20.000Z</time>
      </trkpt>
      <trkpt lat="45.6132" lon="6.65832">
        <ele>2200.6000976562</ele>
        <time>2012-03-25T06:20:35.000Z</time>
      </trkpt>
      <trkpt lat="45.6133" lon="6.65835">
        <ele>2203</ele>
        <time>2012-03-25T06:20:48.000Z</time>
      </trkpt>
      <trkpt lat="45.61346" lon="6.65845">
        <ele>2207</ele>
        <time>2012-03-25T06:21:08.000Z</time>
      </trkpt>
      <trkpt lat="45.61359" lon="6.65852">
        <ele>2210.1999511719</ele>
        <time>2012-03-25T06:21:27.000Z</time>
      </trkpt>
      <trkpt lat="45.61364" lon="6.65859">
        <ele>2212.6000976562</ele>
        <time>2012-03-25T06:21:42.000Z</time>
      </trkpt>
      <trkpt lat="45.61368" lon="6.65867">
        <ele>2215.1999511719</ele>
        <time>2012-03-25T06:21:51.000Z</time>
      </trkpt>
      <trkpt lat="45.61373" lon="6.65879">
        <ele>2218.8000488281</ele>
        <time>2012-03-25T06:22:04.000Z</time>
      </trkpt>
      <trkpt lat="45.61379" lon="6.65887">
        <ele>2221.8000488281</ele>
        <time>2012-03-25T06:22:15.000Z</time>
      </trkpt>
      <trkpt lat="45.61384" lon="6.65893">
        <ele>2224</ele>
        <time>2012-03-25T06:22:24.000Z</time>
      </trkpt>
      <trkpt lat="45.61393" lon="6.65902">
        <ele>2227.1999511719</ele>
        <time>2012-03-25T06:22:40.000Z</time>
      </trkpt>
      <trkpt lat="45.61401" lon="6.6591">
        <ele>2230.3999023438</ele>
        <time>2012-03-25T06:22:53.000Z</time>
      </trkpt>
      <trkpt lat="45.61402" lon="6.6592">
        <ele>2233.1999511719</ele>
        <time>2012-03-25T06:23:04.000Z</time>
      </trkpt>
      <trkpt lat="45.61397" lon="6.6593">
        <ele>2234.3999023438</ele>
        <time>2012-03-25T06:23:17.000Z</time>
      </trkpt>
      <trkpt lat="45.61391" lon="6.65937">
        <ele>2235</ele>
        <time>2012-03-25T06:23:27.000Z</time>
      </trkpt>
      <trkpt lat="45.61383" lon="6.65947">
        <ele>2235.3999023438</ele>
        <time>2012-03-25T06:23:42.000Z</time>
      </trkpt>
      <trkpt lat="45.61379" lon="6.65956">
        <ele>2236.3999023438</ele>
        <time>2012-03-25T06:23:53.000Z</time>
      </trkpt>
      <trkpt lat="45.6138" lon="6.65967">
        <ele>2238.1999511719</ele>
        <time>2012-03-25T06:24:10.000Z</time>
      </trkpt>
      <trkpt lat="45.61385" lon="6.65981">
        <ele>2241.6000976562</ele>
        <time>2012-03-25T06:24:26.000Z</time>
      </trkpt>
      <trkpt lat="45.6139" lon="6.65993">
        <ele>2244.8000488281</ele>
        <time>2012-03-25T06:24:40.000Z</time>
      </trkpt>
      <trkpt lat="45.61395" lon="6.66001">
        <ele>2247.1999511719</ele>
        <time>2012-03-25T06:24:51.000Z</time>
      </trkpt>
      <trkpt lat="45.61406" lon="6.66006">
        <ele>2249.3999023438</ele>
        <time>2012-03-25T06:25:10.000Z</time>
      </trkpt>
      <trkpt lat="45.61414" lon="6.66008">
        <ele>2251</ele>
        <time>2012-03-25T06:25:21.000Z</time>
      </trkpt>
      <trkpt lat="45.61427" lon="6.66014">
        <ele>2254.3999023438</ele>
        <time>2012-03-25T06:25:42.000Z</time>
      </trkpt>
      <trkpt lat="45.61431" lon="6.66016">
        <ele>2255.3999023438</ele>
        <time>2012-03-25T06:25:50.000Z</time>
      </trkpt>
      <trkpt lat="45.61437" lon="6.66013">
        <ele>2257</ele>
        <time>2012-03-25T06:26:00.000Z</time>
      </trkpt>
      <trkpt lat="45.61442" lon="6.6601">
        <ele>2258.3999023438</ele>
        <time>2012-03-25T06:26:08.000Z</time>
      </trkpt>
      <trkpt lat="45.61446" lon="6.66016">
        <ele>2259.3999023438</ele>
        <time>2012-03-25T06:26:25.000Z</time>
      </trkpt>
      <trkpt lat="45.61448" lon="6.66026">
        <ele>2259.8000488281</ele>
        <time>2012-03-25T06:26:38.000Z</time>
      </trkpt>
      <trkpt lat="45.6145" lon="6.66034">
        <ele>2260.3999023438</ele>
        <time>2012-03-25T06:26:49.000Z</time>
      </trkpt>
      <trkpt lat="45.61452" lon="6.66039">
        <ele>2260.8000488281</ele>
        <time>2012-03-25T06:27:01.000Z</time>
      </trkpt>
      <trkpt lat="45.61457" lon="6.66031">
        <ele>2262.1999511719</ele>
        <time>2012-03-25T06:27:12.000Z</time>
      </trkpt>
      <trkpt lat="45.61461" lon="6.66023">
        <ele>2263.3999023438</ele>
        <time>2012-03-25T06:27:25.000Z</time>
      </trkpt>
      <trkpt lat="45.61465" lon="6.66024">
        <ele>2264.3999023438</ele>
        <time>2012-03-25T06:27:37.000Z</time>
      </trkpt>
      <trkpt lat="45.61466" lon="6.66033">
        <ele>2264.8000488281</ele>
        <time>2012-03-25T06:27:48.000Z</time>
      </trkpt>
      <trkpt lat="45.61471" lon="6.66042">
        <ele>2266.3999023438</ele>
        <time>2012-03-25T06:28:02.000Z</time>
      </trkpt>
      <trkpt lat="45.61477" lon="6.66044">
        <ele>2268</ele>
        <time>2012-03-25T06:28:12.000Z</time>
      </trkpt>
      <trkpt lat="45.61491" lon="6.6604">
        <ele>2272</ele>
        <time>2012-03-25T06:28:30.000Z</time>
      </trkpt>
      <trkpt lat="45.61502" lon="6.66037">
        <ele>2275.1999511719</ele>
        <time>2012-03-25T06:28:44.000Z</time>
      </trkpt>
      <trkpt lat="45.61514" lon="6.66032">
        <ele>2279.6000976562</ele>
        <time>2012-03-25T06:28:58.000Z</time>
      </trkpt>
      <trkpt lat="45.61525" lon="6.66027">
        <ele>2283.3999023438</ele>
        <time>2012-03-25T06:29:13.000Z</time>
      </trkpt>
      <trkpt lat="45.61532" lon="6.66025">
        <ele>2286.1999511719</ele>
        <time>2012-03-25T06:29:24.000Z</time>
      </trkpt>
      <trkpt lat="45.61541" lon="6.66024">
        <ele>2289.8000488281</ele>
        <time>2012-03-25T06:29:37.000Z</time>
      </trkpt>
      <trkpt lat="45.61549" lon="6.66029">
        <ele>2293</ele>
        <time>2012-03-25T06:29:50.000Z</time>
      </trkpt>
      <trkpt lat="45.6156" lon="6.66038">
        <ele>2297</ele>
        <time>2012-03-25T06:30:07.000Z</time>
      </trkpt>
      <trkpt lat="45.61568" lon="6.66036">
        <ele>2300.1999511719</ele>
        <time>2012-03-25T06:30:20.000Z</time>
      </trkpt>
      <trkpt lat="45.61573" lon="6.66039">
        <ele>2302.1999511719</ele>
        <time>2012-03-25T06:30:30.000Z</time>
      </trkpt>
      <trkpt lat="45.6158" lon="6.66049">
        <ele>2304.6000976562</ele>
        <time>2012-03-25T06:30:45.000Z</time>
      </trkpt>
      <trkpt lat="45.61585" lon="6.66053">
        <ele>2306.3999023438</ele>
        <time>2012-03-25T06:30:57.000Z</time>
      </trkpt>
      <trkpt lat="45.61589" lon="6.66045">
        <ele>2307.3999023438</ele>
        <time>2012-03-25T06:31:09.000Z</time>
      </trkpt>
      <trkpt lat="45.61595" lon="6.66036">
        <ele>2308.6000976562</ele>
        <time>2012-03-25T06:31:21.000Z</time>
      </trkpt>
      <trkpt lat="45.61599" lon="6.66036">
        <ele>2309.3999023438</ele>
        <time>2012-03-25T06:31:35.000Z</time>
      </trkpt>
      <trkpt lat="45.61601" lon="6.66046">
        <ele>2310.1999511719</ele>
        <time>2012-03-25T06:31:48.000Z</time>
      </trkpt>
      <trkpt lat="45.61607" lon="6.66059">
        <ele>2311.8000488281</ele>
        <time>2012-03-25T06:32:04.000Z</time>
      </trkpt>
      <trkpt lat="45.61612" lon="6.66065">
        <ele>2313.1999511719</ele>
        <time>2012-03-25T06:32:18.000Z</time>
      </trkpt>
      <trkpt lat="45.61615" lon="6.66057">
        <ele>2313.6000976562</ele>
        <time>2012-03-25T06:32:31.000Z</time>
      </trkpt>
      <trkpt lat="45.61621" lon="6.66042">
        <ele>2314.8000488281</ele>
        <time>2012-03-25T06:32:49.000Z</time>
      </trkpt>
      <trkpt lat="45.61625" lon="6.66036">
        <ele>2315.6000976562</ele>
        <time>2012-03-25T06:32:58.000Z</time>
      </trkpt>
      <trkpt lat="45.6163" lon="6.6603">
        <ele>2316.6000976562</ele>
        <time>2012-03-25T06:33:08.000Z</time>
      </trkpt>
      <trkpt lat="45.61634" lon="6.66027">
        <ele>2317.3999023438</ele>
        <time>2012-03-25T06:33:19.000Z</time>
      </trkpt>
      <trkpt lat="45.61637" lon="6.6604">
        <ele>2318.3999023438</ele>
        <time>2012-03-25T06:33:35.000Z</time>
      </trkpt>
      <trkpt lat="45.61641" lon="6.66046">
        <ele>2319.6000976562</ele>
        <time>2012-03-25T06:33:46.000Z</time>
      </trkpt>
      <trkpt lat="45.61647" lon="6.6604">
        <ele>2320.8000488281</ele>
        <time>2012-03-25T06:33:59.000Z</time>
      </trkpt>
      <trkpt lat="45.61652" lon="6.66035">
        <ele>2321.8000488281</ele>
        <time>2012-03-25T06:34:10.000Z</time>
      </trkpt>
      <trkpt lat="45.61666" lon="6.66028">
        <ele>2324.6000976562</ele>
        <time>2012-03-25T06:34:31.000Z</time>
      </trkpt>
      <trkpt lat="45.61673" lon="6.66029">
        <ele>2325.8000488281</ele>
        <time>2012-03-25T06:34:42.000Z</time>
      </trkpt>
      <trkpt lat="45.6168" lon="6.66033">
        <ele>2327.3999023438</ele>
        <time>2012-03-25T06:34:53.000Z</time>
      </trkpt>
      <trkpt lat="45.61687" lon="6.66038">
        <ele>2329.1999511719</ele>
        <time>2012-03-25T06:35:04.000Z</time>
      </trkpt>
      <trkpt lat="45.6169" lon="6.66039">
        <ele>2330</ele>
        <time>2012-03-25T06:35:09.000Z</time>
      </trkpt>
      <trkpt lat="45.61705" lon="6.66041">
        <ele>2333.1999511719</ele>
        <time>2012-03-25T06:35:27.000Z</time>
      </trkpt>
      <trkpt lat="45.61716" lon="6.66044">
        <ele>2336</ele>
        <time>2012-03-25T06:35:40.000Z</time>
      </trkpt>
      <trkpt lat="45.6173" lon="6.66042">
        <ele>2338.3999023438</ele>
        <time>2012-03-25T06:36:05.000Z</time>
      </trkpt>
      <trkpt lat="45.61741" lon="6.66048">
        <ele>2342.3999023438</ele>
        <time>2012-03-25T06:36:22.000Z</time>
      </trkpt>
      <trkpt lat="45.61756" lon="6.66057">
        <ele>2347.1999511719</ele>
        <time>2012-03-25T06:36:41.000Z</time>
      </trkpt>
      <trkpt lat="45.61771" lon="6.66063">
        <ele>2349</ele>
        <time>2012-03-25T06:37:00.000Z</time>
      </trkpt>
      <trkpt lat="45.61783" lon="6.66068">
        <ele>2350.1999511719</ele>
        <time>2012-03-25T06:37:16.000Z</time>
      </trkpt>
      <trkpt lat="45.61793" lon="6.66072">
        <ele>2351</ele>
        <time>2012-03-25T06:37:30.000Z</time>
      </trkpt>
      <trkpt lat="45.61801" lon="6.66074">
        <ele>2351.3999023438</ele>
        <time>2012-03-25T06:37:41.000Z</time>
      </trkpt>
      <trkpt lat="45.61811" lon="6.66069">
        <ele>2350.3999023438</ele>
        <time>2012-03-25T06:37:55.000Z</time>
      </trkpt>
      <trkpt lat="45.6182" lon="6.66063">
        <ele>2349.1999511719</ele>
        <time>2012-03-25T06:38:08.000Z</time>
      </trkpt>
      <trkpt lat="45.61831" lon="6.66056">
        <ele>2348.3999023438</ele>
        <time>2012-03-25T06:38:22.000Z</time>
      </trkpt>
      <trkpt lat="45.61857" lon="6.66032">
        <ele>2347.6000976562</ele>
        <time>2012-03-25T06:38:51.000Z</time>
      </trkpt>
      <trkpt lat="45.61873" lon="6.66025">
        <ele>2348</ele>
        <time>2012-03-25T06:39:12.000Z</time>
      </trkpt>
      <trkpt lat="45.61889" lon="6.66027">
        <ele>2349.8000488281</ele>
        <time>2012-03-25T06:39:33.000Z</time>
      </trkpt>
      <trkpt lat="45.61906" lon="6.66028">
        <ele>2351.8000488281</ele>
        <time>2012-03-25T06:39:54.000Z</time>
      </trkpt>
      <trkpt lat="45.61914" lon="6.66031">
        <ele>2353</ele>
        <time>2012-03-25T06:40:06.000Z</time>
      </trkpt>
      <trkpt lat="45.61922" lon="6.66036">
        <ele>2355.3999023438</ele>
        <time>2012-03-25T06:40:22.000Z</time>
      </trkpt>
      <trkpt lat="45.61922" lon="6.66036">
        <ele>2355.3999023438</ele>
        <time>2012-03-25T06:40:35.000Z</time>
      </trkpt>
      <trkpt lat="45.61924" lon="6.66036">
        <ele>2355.8000488281</ele>
        <time>2012-03-25T06:40:58.000Z</time>
      </trkpt>
      <trkpt lat="45.61924" lon="6.66036">
        <ele>2356</ele>
        <time>2012-03-25T06:41:17.000Z</time>
      </trkpt>
      <trkpt lat="45.61924" lon="6.66035">
        <ele>2355.8000488281</ele>
        <time>2012-03-25T06:41:32.000Z</time>
      </trkpt>
      <trkpt lat="45.61925" lon="6.66035">
        <ele>2356</ele>
        <time>2012-03-25T06:41:58.000Z</time>
      </trkpt>
      <trkpt lat="45.61925" lon="6.66036">
        <ele>2356.1999511719</ele>
        <time>2012-03-25T06:42:11.000Z</time>
      </trkpt>
      <trkpt lat="45.61925" lon="6.66036">
        <ele>2356.1999511719</ele>
        <time>2012-03-25T06:42:20.000Z</time>
      </trkpt>
      <trkpt lat="45.61925" lon="6.66036">
        <ele>2356.1999511719</ele>
        <time>2012-03-25T06:42:32.000Z</time>
      </trkpt>
      <trkpt lat="45.61925" lon="6.66037">
        <ele>2356.3999023438</ele>
        <time>2012-03-25T06:42:56.000Z</time>
      </trkpt>
      <trkpt lat="45.61925" lon="6.66036">
        <ele>2356.1999511719</ele>
        <time>2012-03-25T06:43:03.000Z</time>
      </trkpt>
      <trkpt lat="45.61924" lon="6.66036">
        <ele>2356</ele>
        <time>2012-03-25T06:43:18.000Z</time>
      </trkpt>
      <trkpt lat="45.61924" lon="6.66036">
        <ele>2356</ele>
        <time>2012-03-25T06:43:27.000Z</time>
      </trkpt>
      <trkpt lat="45.61924" lon="6.66035">
        <ele>2355.8000488281</ele>
        <time>2012-03-25T06:43:41.000Z</time>
      </trkpt>
      <trkpt lat="45.61925" lon="6.66035">
        <ele>2356</ele>
        <time>2012-03-25T06:43:56.000Z</time>
      </trkpt>
      <trkpt lat="45.61925" lon="6.66035">
        <ele>2355.8000488281</ele>
        <time>2012-03-25T06:44:11.000Z</time>
      </trkpt>
      <trkpt lat="45.61926" lon="6.66035">
        <ele>2356.1999511719</ele>
        <time>2012-03-25T06:44:28.000Z</time>
      </trkpt>
      <trkpt lat="45.61926" lon="6.66034">
        <ele>2356</ele>
        <time>2012-03-25T06:44:41.000Z</time>
      </trkpt>
      <trkpt lat="45.61927" lon="6.66034">
        <ele>2356.1999511719</ele>
        <time>2012-03-25T06:44:58.000Z</time>
      </trkpt>
      <trkpt lat="45.61927" lon="6.66035">
        <ele>2356.3999023438</ele>
        <time>2012-03-25T06:45:10.000Z</time>
      </trkpt>
      <trkpt lat="45.61926" lon="6.66035">
        <ele>2356.3999023438</ele>
        <time>2012-03-25T06:45:29.000Z</time>
      </trkpt>
      <trkpt lat="45.61941" lon="6.66026">
        <ele>2357.8000488281</ele>
        <time>2012-03-25T06:45:44.000Z</time>
      </trkpt>
      <trkpt lat="45.61951" lon="6.6602">
        <ele>2358.8000488281</ele>
        <time>2012-03-25T06:45:49.000Z</time>
      </trkpt>
      <trkpt lat="45.61971" lon="6.66011">
        <ele>2360.3999023438</ele>
        <time>2012-03-25T06:45:56.000Z</time>
      </trkpt>
      <trkpt lat="45.61981" lon="6.66002">
        <ele>2359.3999023438</ele>
        <time>2012-03-25T06:46:00.000Z</time>
      </trkpt>
      <trkpt lat="45.62" lon="6.65994">
        <ele>2359</ele>
        <time>2012-03-25T06:46:05.000Z</time>
      </trkpt>
      <trkpt lat="45.62034" lon="6.65971">
        <ele>2352.6000976562</ele>
        <time>2012-03-25T06:46:15.000Z</time>
      </trkpt>
      <trkpt lat="45.62062" lon="6.65958">
        <ele>2350.8000488281</ele>
        <time>2012-03-25T06:46:24.000Z</time>
      </trkpt>
      <trkpt lat="45.62108" lon="6.65948">
        <ele>2351</ele>
        <time>2012-03-25T06:46:38.000Z</time>
      </trkpt>
      <trkpt lat="45.62135" lon="6.65942">
        <ele>2350</ele>
        <time>2012-03-25T06:46:48.000Z</time>
      </trkpt>
      <trkpt lat="45.62172" lon="6.65937">
        <ele>2349.6000976562</ele>
        <time>2012-03-25T06:47:01.000Z</time>
      </trkpt>
      <trkpt lat="45.62205" lon="6.65932">
        <ele>2345</ele>
        <time>2012-03-25T06:47:14.000Z</time>
      </trkpt>
      <trkpt lat="45.62219" lon="6.65909">
        <ele>2338.8000488281</ele>
        <time>2012-03-25T06:47:21.000Z</time>
      </trkpt>
      <trkpt lat="45.62232" lon="6.65896">
        <ele>2337.3999023438</ele>
        <time>2012-03-25T06:47:27.000Z</time>
      </trkpt>
      <trkpt lat="45.62242" lon="6.6589">
        <ele>2337</ele>
        <time>2012-03-25T06:47:42.000Z</time>
      </trkpt>
      <trkpt lat="45.62242" lon="6.65891">
        <ele>2337</ele>
        <time>2012-03-25T06:47:59.000Z</time>
      </trkpt>
      <trkpt lat="45.62242" lon="6.65891">
        <ele>2337</ele>
        <time>2012-03-25T06:48:17.000Z</time>
      </trkpt>
      <trkpt lat="45.62241" lon="6.65884">
        <ele>2336.6000976562</ele>
        <time>2012-03-25T06:48:30.000Z</time>
      </trkpt>
      <trkpt lat="45.62242" lon="6.6585">
        <ele>2335</ele>
        <time>2012-03-25T06:48:38.000Z</time>
      </trkpt>
      <trkpt lat="45.62244" lon="6.65849">
        <ele>2335</ele>
        <time>2012-03-25T06:48:49.000Z</time>
      </trkpt>
      <trkpt lat="45.62245" lon="6.65848">
        <ele>2335.1999511719</ele>
        <time>2012-03-25T06:49:16.000Z</time>
      </trkpt>
      <trkpt lat="45.62245" lon="6.65849">
        <ele>2335.1999511719</ele>
        <time>2012-03-25T06:49:45.000Z</time>
      </trkpt>
      <trkpt lat="45.62245" lon="6.6585">
        <ele>2335.1999511719</ele>
        <time>2012-03-25T06:50:22.000Z</time>
      </trkpt>
      <trkpt lat="45.62245" lon="6.6585">
        <ele>2335.1999511719</ele>
        <time>2012-03-25T06:50:37.000Z</time>
      </trkpt>
      <trkpt lat="45.62245" lon="6.6585">
        <ele>2335.1999511719</ele>
        <time>2012-03-25T06:50:53.000Z</time>
      </trkpt>
      <trkpt lat="45.62245" lon="6.6585">
        <ele>2335.1999511719</ele>
        <time>2012-03-25T06:51:11.000Z</time>
      </trkpt>
      <trkpt lat="45.62245" lon="6.6585">
        <ele>2335.1999511719</ele>
        <time>2012-03-25T06:51:29.000Z</time>
      </trkpt>
      <trkpt lat="45.62245" lon="6.65848">
        <ele>2335.1999511719</ele>
        <time>2012-03-25T06:52:05.000Z</time>
      </trkpt>
      <trkpt lat="45.62245" lon="6.65848">
        <ele>2335</ele>
        <time>2012-03-25T06:52:19.000Z</time>
      </trkpt>
      <trkpt lat="45.62245" lon="6.65848">
        <ele>2335.1999511719</ele>
        <time>2012-03-25T06:52:40.000Z</time>
      </trkpt>
      <trkpt lat="45.62245" lon="6.65848">
        <ele>2335.1999511719</ele>
        <time>2012-03-25T06:52:53.000Z</time>
      </trkpt>
      <trkpt lat="45.62245" lon="6.65847">
        <ele>2335</ele>
        <time>2012-03-25T06:53:05.000Z</time>
      </trkpt>
      <trkpt lat="45.62244" lon="6.65849">
        <ele>2335</ele>
        <time>2012-03-25T06:53:25.000Z</time>
      </trkpt>
      <trkpt lat="45.62243" lon="6.6585">
        <ele>2335</ele>
        <time>2012-03-25T06:53:41.000Z</time>
      </trkpt>
      <trkpt lat="45.62244" lon="6.6585">
        <ele>2335.1999511719</ele>
        <time>2012-03-25T06:54:03.000Z</time>
      </trkpt>
      <trkpt lat="45.62245" lon="6.6585">
        <ele>2335.1999511719</ele>
        <time>2012-03-25T06:54:21.000Z</time>
      </trkpt>
      <trkpt lat="45.62246" lon="6.6585">
        <ele>2335.1999511719</ele>
        <time>2012-03-25T06:54:43.000Z</time>
      </trkpt>
      <trkpt lat="45.62246" lon="6.65846">
        <ele>2335.1999511719</ele>
        <time>2012-03-25T06:54:53.000Z</time>
      </trkpt>
      <trkpt lat="45.62244" lon="6.65843">
        <ele>2334.8000488281</ele>
        <time>2012-03-25T06:55:04.000Z</time>
      </trkpt>
      <trkpt lat="45.62239" lon="6.65837">
        <ele>2334</ele>
        <time>2012-03-25T06:55:17.000Z</time>
      </trkpt>
      <trkpt lat="45.62237" lon="6.65821">
        <ele>2336.3999023438</ele>
        <time>2012-03-25T06:55:35.000Z</time>
      </trkpt>
      <trkpt lat="45.62242" lon="6.65809">
        <ele>2339.3999023438</ele>
        <time>2012-03-25T06:55:48.000Z</time>
      </trkpt>
      <trkpt lat="45.62244" lon="6.65802">
        <ele>2341.3999023438</ele>
        <time>2012-03-25T06:55:57.000Z</time>
      </trkpt>
      <trkpt lat="45.62247" lon="6.65796">
        <ele>2343</ele>
        <time>2012-03-25T06:56:05.000Z</time>
      </trkpt>
      <trkpt lat="45.6225" lon="6.65787">
        <ele>2345.3999023438</ele>
        <time>2012-03-25T06:56:16.000Z</time>
      </trkpt>
      <trkpt lat="45.62253" lon="6.65776">
        <ele>2347.3999023438</ele>
        <time>2012-03-25T06:56:28.000Z</time>
      </trkpt>
      <trkpt lat="45.62255" lon="6.65766">
        <ele>2349.6000976562</ele>
        <time>2012-03-25T06:56:39.000Z</time>
      </trkpt>
      <trkpt lat="45.62257" lon="6.65758">
        <ele>2351</ele>
        <time>2012-03-25T06:56:49.000Z</time>
      </trkpt>
      <trkpt lat="45.62261" lon="6.65746">
        <ele>2353.6000976562</ele>
        <time>2012-03-25T06:57:04.000Z</time>
      </trkpt>
      <trkpt lat="45.62266" lon="6.65733">
        <ele>2357.3999023438</ele>
        <time>2012-03-25T06:57:21.000Z</time>
      </trkpt>
      <trkpt lat="45.6227" lon="6.65721">
        <ele>2361</ele>
        <time>2012-03-25T06:57:33.000Z</time>
      </trkpt>
      <trkpt lat="45.62274" lon="6.65704">
        <ele>2365.6000976562</ele>
        <time>2012-03-25T06:57:49.000Z</time>
      </trkpt>
      <trkpt lat="45.62282" lon="6.65689">
        <ele>2368.8000488281</ele>
        <time>2012-03-25T06:58:09.000Z</time>
      </trkpt>
      <trkpt lat="45.62289" lon="6.65677">
        <ele>2371</ele>
        <time>2012-03-25T06:58:25.000Z</time>
      </trkpt>
      <trkpt lat="45.62296" lon="6.65666">
        <ele>2372.6000976562</ele>
        <time>2012-03-25T06:58:39.000Z</time>
      </trkpt>
      <trkpt lat="45.62303" lon="6.65656">
        <ele>2373</ele>
        <time>2012-03-25T06:58:53.000Z</time>
      </trkpt>
      <trkpt lat="45.62313" lon="6.65646">
        <ele>2372.8000488281</ele>
        <time>2012-03-25T06:59:10.000Z</time>
      </trkpt>
      <trkpt lat="45.62323" lon="6.6564">
        <ele>2371.3999023438</ele>
        <time>2012-03-25T06:59:26.000Z</time>
      </trkpt>
      <trkpt lat="45.62327" lon="6.65634">
        <ele>2371.6000976562</ele>
        <time>2012-03-25T06:59:36.000Z</time>
      </trkpt>
      <trkpt lat="45.62329" lon="6.6563">
        <ele>2371.8000488281</ele>
        <time>2012-03-25T06:59:43.000Z</time>
      </trkpt>
      <trkpt lat="45.62332" lon="6.65612">
        <ele>2374.8000488281</ele>
        <time>2012-03-25T07:00:02.000Z</time>
      </trkpt>
      <trkpt lat="45.62333" lon="6.65599">
        <ele>2377.8000488281</ele>
        <time>2012-03-25T07:00:15.000Z</time>
      </trkpt>
      <trkpt lat="45.62333" lon="6.65587">
        <ele>2380.3999023438</ele>
        <time>2012-03-25T07:00:26.000Z</time>
      </trkpt>
      <trkpt lat="45.62338" lon="6.6557">
        <ele>2385.8000488281</ele>
        <time>2012-03-25T07:00:45.000Z</time>
      </trkpt>
      <trkpt lat="45.62346" lon="6.65558">
        <ele>2390.3999023438</ele>
        <time>2012-03-25T07:01:00.000Z</time>
      </trkpt>
      <trkpt lat="45.62365" lon="6.65537">
        <ele>2397.8000488281</ele>
        <time>2012-03-25T07:01:30.000Z</time>
      </trkpt>
      <trkpt lat="45.62369" lon="6.65527">
        <ele>2401</ele>
        <time>2012-03-25T07:01:45.000Z</time>
      </trkpt>
      <trkpt lat="45.62366" lon="6.65521">
        <ele>2403.1999511719</ele>
        <time>2012-03-25T07:01:56.000Z</time>
      </trkpt>
      <trkpt lat="45.62371" lon="6.65516">
        <ele>2404.6000976562</ele>
        <time>2012-03-25T07:02:08.000Z</time>
      </trkpt>
      <trkpt lat="45.6238" lon="6.65507">
        <ele>2407.3999023438</ele>
        <time>2012-03-25T07:02:27.000Z</time>
      </trkpt>
      <trkpt lat="45.62387" lon="6.65502">
        <ele>2409</ele>
        <time>2012-03-25T07:02:38.000Z</time>
      </trkpt>
      <trkpt lat="45.62391" lon="6.65499">
        <ele>2409.8000488281</ele>
        <time>2012-03-25T07:02:49.000Z</time>
      </trkpt>
      <trkpt lat="45.62392" lon="6.65493">
        <ele>2411.1999511719</ele>
        <time>2012-03-25T07:02:59.000Z</time>
      </trkpt>
      <trkpt lat="45.62386" lon="6.65483">
        <ele>2413</ele>
        <time>2012-03-25T07:03:13.000Z</time>
      </trkpt>
      <trkpt lat="45.62387" lon="6.65476">
        <ele>2414.3999023438</ele>
        <time>2012-03-25T07:03:21.000Z</time>
      </trkpt>
      <trkpt lat="45.62394" lon="6.65466">
        <ele>2417.1999511719</ele>
        <time>2012-03-25T07:03:37.000Z</time>
      </trkpt>
      <trkpt lat="45.624" lon="6.65462">
        <ele>2418.8000488281</ele>
        <time>2012-03-25T07:03:50.000Z</time>
      </trkpt>
      <trkpt lat="45.62399" lon="6.65452">
        <ele>2421</ele>
        <time>2012-03-25T07:04:00.000Z</time>
      </trkpt>
      <trkpt lat="45.62391" lon="6.65443">
        <ele>2421.6000976562</ele>
        <time>2012-03-25T07:04:16.000Z</time>
      </trkpt>
      <trkpt lat="45.62385" lon="6.65443">
        <ele>2420.6000976562</ele>
        <time>2012-03-25T07:04:27.000Z</time>
      </trkpt>
      <trkpt lat="45.62376" lon="6.65446">
        <ele>2418.3999023438</ele>
        <time>2012-03-25T07:04:39.000Z</time>
      </trkpt>
      <trkpt lat="45.62368" lon="6.65451">
        <ele>2416.1999511719</ele>
        <time>2012-03-25T07:04:59.000Z</time>
      </trkpt>
      <trkpt lat="45.62361" lon="6.65446">
        <ele>2415.6000976562</ele>
        <time>2012-03-25T07:05:12.000Z</time>
      </trkpt>
      <trkpt lat="45.62362" lon="6.65438">
        <ele>2416.3999023438</ele>
        <time>2012-03-25T07:05:22.000Z</time>
      </trkpt>
      <trkpt lat="45.62362" lon="6.65432">
        <ele>2417.1999511719</ele>
        <time>2012-03-25T07:05:42.000Z</time>
      </trkpt>
      <trkpt lat="45.62363" lon="6.65431">
        <ele>2417.3999023438</ele>
        <time>2012-03-25T07:05:52.000Z</time>
      </trkpt>
      <trkpt lat="45.62364" lon="6.65432">
        <ele>2417.6000976562</ele>
        <time>2012-03-25T07:06:03.000Z</time>
      </trkpt>
      <trkpt lat="45.62364" lon="6.65432">
        <ele>2417.6000976562</ele>
        <time>2012-03-25T07:06:27.000Z</time>
      </trkpt>
      <trkpt lat="45.62365" lon="6.65432">
        <ele>2417.8000488281</ele>
        <time>2012-03-25T07:06:43.000Z</time>
      </trkpt>
      <trkpt lat="45.62365" lon="6.65432">
        <ele>2417.8000488281</ele>
        <time>2012-03-25T07:07:08.000Z</time>
      </trkpt>
      <trkpt lat="45.62366" lon="6.65434">
        <ele>2417.8000488281</ele>
        <time>2012-03-25T07:07:24.000Z</time>
      </trkpt>
      <trkpt lat="45.62365" lon="6.65434">
        <ele>2417.6000976562</ele>
        <time>2012-03-25T07:07:39.000Z</time>
      </trkpt>
      <trkpt lat="45.62365" lon="6.65434">
        <ele>2417.6000976562</ele>
        <time>2012-03-25T07:07:59.000Z</time>
      </trkpt>
      <trkpt lat="45.62365" lon="6.65433">
        <ele>2417.6000976562</ele>
        <time>2012-03-25T07:08:20.000Z</time>
      </trkpt>
      <trkpt lat="45.62367" lon="6.6543">
        <ele>2418.6000976562</ele>
        <time>2012-03-25T07:08:35.000Z</time>
      </trkpt>
      <trkpt lat="45.62376" lon="6.65424">
        <ele>2421.6000976562</ele>
        <time>2012-03-25T07:08:48.000Z</time>
      </trkpt>
      <trkpt lat="45.62387" lon="6.6542">
        <ele>2425.3999023438</ele>
        <time>2012-03-25T07:09:09.000Z</time>
      </trkpt>
      <trkpt lat="45.62397" lon="6.65422">
        <ele>2428</ele>
        <time>2012-03-25T07:09:23.000Z</time>
      </trkpt>
      <trkpt lat="45.62413" lon="6.65423">
        <ele>2432</ele>
        <time>2012-03-25T07:09:42.000Z</time>
      </trkpt>
      <trkpt lat="45.62422" lon="6.65423">
        <ele>2433.3999023438</ele>
        <time>2012-03-25T07:09:53.000Z</time>
      </trkpt>
      <trkpt lat="45.62435" lon="6.65422">
        <ele>2435.1999511719</ele>
        <time>2012-03-25T07:10:10.000Z</time>
      </trkpt>
      <trkpt lat="45.62449" lon="6.65422">
        <ele>2436.1999511719</ele>
        <time>2012-03-25T07:10:26.000Z</time>
      </trkpt>
      <trkpt lat="45.62469" lon="6.65421">
        <ele>2438.6000976562</ele>
        <time>2012-03-25T07:10:48.000Z</time>
      </trkpt>
      <trkpt lat="45.62491" lon="6.65417">
        <ele>2442.1999511719</ele>
        <time>2012-03-25T07:11:12.000Z</time>
      </trkpt>
      <trkpt lat="45.62502" lon="6.65414">
        <ele>2444.1999511719</ele>
        <time>2012-03-25T07:11:22.000Z</time>
      </trkpt>
      <trkpt lat="45.62522" lon="6.65408">
        <ele>2447</ele>
        <time>2012-03-25T07:11:43.000Z</time>
      </trkpt>
      <trkpt lat="45.62534" lon="6.65409">
        <ele>2447.1999511719</ele>
        <time>2012-03-25T07:11:58.000Z</time>
      </trkpt>
      <trkpt lat="45.62545" lon="6.6541">
        <ele>2447.1999511719</ele>
        <time>2012-03-25T07:12:12.000Z</time>
      </trkpt>
      <trkpt lat="45.62554" lon="6.65407">
        <ele>2448.8000488281</ele>
        <time>2012-03-25T07:12:25.000Z</time>
      </trkpt>
      <trkpt lat="45.62564" lon="6.65402">
        <ele>2451.1999511719</ele>
        <time>2012-03-25T07:12:42.000Z</time>
      </trkpt>
      <trkpt lat="45.62563" lon="6.654">
        <ele>2452.3999023438</ele>
        <time>2012-03-25T07:12:51.000Z</time>
      </trkpt>
      <trkpt lat="45.62557" lon="6.65393">
        <ele>2455.1999511719</ele>
        <time>2012-03-25T07:13:01.000Z</time>
      </trkpt>
      <trkpt lat="45.62551" lon="6.65385">
        <ele>2458.6000976562</ele>
        <time>2012-03-25T07:13:12.000Z</time>
      </trkpt>
      <trkpt lat="45.62546" lon="6.65379">
        <ele>2460.8000488281</ele>
        <time>2012-03-25T07:13:21.000Z</time>
      </trkpt>
      <trkpt lat="45.62542" lon="6.65374">
        <ele>2462.6000976562</ele>
        <time>2012-03-25T07:13:33.000Z</time>
      </trkpt>
      <trkpt lat="45.62547" lon="6.6537">
        <ele>2464.6000976562</ele>
        <time>2012-03-25T07:13:43.000Z</time>
      </trkpt>
      <trkpt lat="45.62555" lon="6.65366">
        <ele>2467.1999511719</ele>
        <time>2012-03-25T07:13:57.000Z</time>
      </trkpt>
      <trkpt lat="45.62564" lon="6.65364">
        <ele>2468.6000976562</ele>
        <time>2012-03-25T07:14:10.000Z</time>
      </trkpt>
      <trkpt lat="45.62571" lon="6.65364">
        <ele>2469.1999511719</ele>
        <time>2012-03-25T07:14:22.000Z</time>
      </trkpt>
      <trkpt lat="45.62577" lon="6.65366">
        <ele>2468.8000488281</ele>
        <time>2012-03-25T07:14:37.000Z</time>
      </trkpt>
      <trkpt lat="45.62578" lon="6.65367">
        <ele>2468.6000976562</ele>
        <time>2012-03-25T07:14:55.000Z</time>
      </trkpt>
      <trkpt lat="45.62577" lon="6.65362">
        <ele>2470.6000976562</ele>
        <time>2012-03-25T07:15:04.000Z</time>
      </trkpt>
      <trkpt lat="45.62578" lon="6.65362">
        <ele>2470.6000976562</ele>
        <time>2012-03-25T07:15:15.000Z</time>
      </trkpt>
      <trkpt lat="45.62578" lon="6.65355">
        <ele>2474.1999511719</ele>
        <time>2012-03-25T07:15:28.000Z</time>
      </trkpt>
      <trkpt lat="45.62579" lon="6.6535">
        <ele>2476.3999023438</ele>
        <time>2012-03-25T07:15:33.000Z</time>
      </trkpt>
      <trkpt lat="45.6258" lon="6.65347">
        <ele>2478.3999023438</ele>
        <time>2012-03-25T07:15:39.000Z</time>
      </trkpt>
      <trkpt lat="45.62582" lon="6.65342">
        <ele>2480.6000976562</ele>
        <time>2012-03-25T07:15:45.000Z</time>
      </trkpt>
      <trkpt lat="45.62586" lon="6.65334">
        <ele>2484.1999511719</ele>
        <time>2012-03-25T07:16:00.000Z</time>
      </trkpt>
      <trkpt lat="45.62589" lon="6.65329">
        <ele>2485.8000488281</ele>
        <time>2012-03-25T07:16:08.000Z</time>
      </trkpt>
      <trkpt lat="45.62591" lon="6.65326">
        <ele>2486.6000976562</ele>
        <time>2012-03-25T07:16:16.000Z</time>
      </trkpt>
      <trkpt lat="45.62594" lon="6.65324">
        <ele>2487</ele>
        <time>2012-03-25T07:16:28.000Z</time>
      </trkpt>
      <trkpt lat="45.6259" lon="6.6532">
        <ele>2489.6000976562</ele>
        <time>2012-03-25T07:16:41.000Z</time>
      </trkpt>
      <trkpt lat="45.62586" lon="6.65319">
        <ele>2490.8000488281</ele>
        <time>2012-03-25T07:16:51.000Z</time>
      </trkpt>
      <trkpt lat="45.62584" lon="6.65318">
        <ele>2491.6000976562</ele>
        <time>2012-03-25T07:17:06.000Z</time>
      </trkpt>
      <trkpt lat="45.62583" lon="6.65317">
        <ele>2492</ele>
        <time>2012-03-25T07:17:16.000Z</time>
      </trkpt>
      <trkpt lat="45.62588" lon="6.6531">
        <ele>2494</ele>
        <time>2012-03-25T07:17:28.000Z</time>
      </trkpt>
      <trkpt lat="45.62594" lon="6.65305">
        <ele>2495.1999511719</ele>
        <time>2012-03-25T07:17:40.000Z</time>
      </trkpt>
      <trkpt lat="45.62596" lon="6.65303">
        <ele>2495.8000488281</ele>
        <time>2012-03-25T07:17:55.000Z</time>
      </trkpt>
      <trkpt lat="45.62592" lon="6.653">
        <ele>2498</ele>
        <time>2012-03-25T07:18:07.000Z</time>
      </trkpt>
      <trkpt lat="45.6259" lon="6.65298">
        <ele>2499.1999511719</ele>
        <time>2012-03-25T07:18:33.000Z</time>
      </trkpt>
      <trkpt lat="45.62596" lon="6.65294">
        <ele>2499.6000976562</ele>
        <time>2012-03-25T07:18:46.000Z</time>
      </trkpt>
      <trkpt lat="45.62594" lon="6.65294">
        <ele>2500.3999023438</ele>
        <time>2012-03-25T07:18:58.000Z</time>
      </trkpt>
      <trkpt lat="45.62588" lon="6.6529">
        <ele>2502.6000976562</ele>
        <time>2012-03-25T07:19:14.000Z</time>
      </trkpt>
      <trkpt lat="45.62591" lon="6.65288">
        <ele>2503.3999023438</ele>
        <time>2012-03-25T07:19:30.000Z</time>
      </trkpt>
      <trkpt lat="45.62595" lon="6.65283">
        <ele>2504.8000488281</ele>
        <time>2012-03-25T07:19:39.000Z</time>
      </trkpt>
      <trkpt lat="45.62598" lon="6.65282">
        <ele>2505</ele>
        <time>2012-03-25T07:19:52.000Z</time>
      </trkpt>
      <trkpt lat="45.62595" lon="6.65277">
        <ele>2507.3999023438</ele>
        <time>2012-03-25T07:20:11.000Z</time>
      </trkpt>
      <trkpt lat="45.62591" lon="6.65273">
        <ele>2510</ele>
        <time>2012-03-25T07:20:19.000Z</time>
      </trkpt>
      <trkpt lat="45.62593" lon="6.6527">
        <ele>2510.8000488281</ele>
        <time>2012-03-25T07:20:30.000Z</time>
      </trkpt>
      <trkpt lat="45.62598" lon="6.65267">
        <ele>2511.3999023438</ele>
        <time>2012-03-25T07:20:40.000Z</time>
      </trkpt>
      <trkpt lat="45.62592" lon="6.65264">
        <ele>2513.6000976562</ele>
        <time>2012-03-25T07:20:58.000Z</time>
      </trkpt>
      <trkpt lat="45.62589" lon="6.65261">
        <ele>2515.3999023438</ele>
        <time>2012-03-25T07:21:06.000Z</time>
      </trkpt>
      <trkpt lat="45.62588" lon="6.65256">
        <ele>2517.6000976562</ele>
        <time>2012-03-25T07:21:13.000Z</time>
      </trkpt>
      <trkpt lat="45.62593" lon="6.65248">
        <ele>2519.8000488281</ele>
        <time>2012-03-25T07:21:28.000Z</time>
      </trkpt>
      <trkpt lat="45.62592" lon="6.65246">
        <ele>2520</ele>
        <time>2012-03-25T07:21:36.000Z</time>
      </trkpt>
      <trkpt lat="45.62588" lon="6.6524">
        <ele>2521</ele>
        <time>2012-03-25T07:21:48.000Z</time>
      </trkpt>
      <trkpt lat="45.62591" lon="6.65234">
        <ele>2520.8000488281</ele>
        <time>2012-03-25T07:22:02.000Z</time>
      </trkpt>
      <trkpt lat="45.62596" lon="6.65233">
        <ele>2520.1999511719</ele>
        <time>2012-03-25T07:22:18.000Z</time>
      </trkpt>
      <trkpt lat="45.62598" lon="6.65232">
        <ele>2520</ele>
        <time>2012-03-25T07:22:32.000Z</time>
      </trkpt>
      <trkpt lat="45.62595" lon="6.65232">
        <ele>2520.3999023438</ele>
        <time>2012-03-25T07:22:54.000Z</time>
      </trkpt>
      <trkpt lat="45.62592" lon="6.65229">
        <ele>2521</ele>
        <time>2012-03-25T07:23:05.000Z</time>
      </trkpt>
      <trkpt lat="45.6259" lon="6.65222">
        <ele>2521.8000488281</ele>
        <time>2012-03-25T07:23:20.000Z</time>
      </trkpt>
      <trkpt lat="45.62595" lon="6.65219">
        <ele>2521.1999511719</ele>
        <time>2012-03-25T07:23:34.000Z</time>
      </trkpt>
      <trkpt lat="45.62598" lon="6.65222">
        <ele>2520.6000976562</ele>
        <time>2012-03-25T07:23:49.000Z</time>
      </trkpt>
      <trkpt lat="45.62594" lon="6.65214">
        <ele>2521.8000488281</ele>
        <time>2012-03-25T07:24:04.000Z</time>
      </trkpt>
      <trkpt lat="45.6259" lon="6.65209">
        <ele>2522.6000976562</ele>
        <time>2012-03-25T07:24:16.000Z</time>
      </trkpt>
      <trkpt lat="45.62593" lon="6.65205">
        <ele>2522.6000976562</ele>
        <time>2012-03-25T07:24:30.000Z</time>
      </trkpt>
      <trkpt lat="45.62599" lon="6.65201">
        <ele>2521.6000976562</ele>
        <time>2012-03-25T07:24:44.000Z</time>
      </trkpt>
      <trkpt lat="45.62602" lon="6.65201">
        <ele>2521.1999511719</ele>
        <time>2012-03-25T07:24:58.000Z</time>
      </trkpt>
      <trkpt lat="45.62601" lon="6.65197">
        <ele>2521.3999023438</ele>
        <time>2012-03-25T07:25:13.000Z</time>
      </trkpt>
      <trkpt lat="45.62604" lon="6.65191">
        <ele>2521.1999511719</ele>
        <time>2012-03-25T07:25:22.000Z</time>
      </trkpt>
      <trkpt lat="45.62604" lon="6.65186">
        <ele>2521.3999023438</ele>
        <time>2012-03-25T07:25:29.000Z</time>
      </trkpt>
      <trkpt lat="45.62605" lon="6.65175">
        <ele>2522</ele>
        <time>2012-03-25T07:25:41.000Z</time>
      </trkpt>
      <trkpt lat="45.62609" lon="6.65166">
        <ele>2521.1999511719</ele>
        <time>2012-03-25T07:25:54.000Z</time>
      </trkpt>
      <trkpt lat="45.62612" lon="6.65158">
        <ele>2519.3999023438</ele>
        <time>2012-03-25T07:26:11.000Z</time>
      </trkpt>
      <trkpt lat="45.62613" lon="6.65149">
        <ele>2517.8000488281</ele>
        <time>2012-03-25T07:26:20.000Z</time>
      </trkpt>
      <trkpt lat="45.62621" lon="6.65142">
        <ele>2514.8000488281</ele>
        <time>2012-03-25T07:26:41.000Z</time>
      </trkpt>
      <trkpt lat="45.62624" lon="6.65136">
        <ele>2513.1999511719</ele>
        <time>2012-03-25T07:26:57.000Z</time>
      </trkpt>
      <trkpt lat="45.62624" lon="6.65135">
        <ele>2513</ele>
        <time>2012-03-25T07:27:09.000Z</time>
      </trkpt>
      <trkpt lat="45.62626" lon="6.65133">
        <ele>2512.3999023438</ele>
        <time>2012-03-25T07:27:34.000Z</time>
      </trkpt>
      <trkpt lat="45.62626" lon="6.65133">
        <ele>2512.3999023438</ele>
        <time>2012-03-25T07:27:59.000Z</time>
      </trkpt>
      <trkpt lat="45.62625" lon="6.65132">
        <ele>2512.3999023438</ele>
        <time>2012-03-25T07:28:36.000Z</time>
      </trkpt>
      <trkpt lat="45.62625" lon="6.65132">
        <ele>2512.3999023438</ele>
        <time>2012-03-25T07:29:03.000Z</time>
      </trkpt>
      <trkpt lat="45.62625" lon="6.65132">
        <ele>2512.3999023438</ele>
        <time>2012-03-25T07:29:15.000Z</time>
      </trkpt>
      <trkpt lat="45.62625" lon="6.65134">
        <ele>2512.6000976562</ele>
        <time>2012-03-25T07:29:29.000Z</time>
      </trkpt>
      <trkpt lat="45.62625" lon="6.65134">
        <ele>2512.6000976562</ele>
        <time>2012-03-25T07:29:46.000Z</time>
      </trkpt>
      <trkpt lat="45.62624" lon="6.65133">
        <ele>2512.8000488281</ele>
        <time>2012-03-25T07:30:03.000Z</time>
      </trkpt>
      <trkpt lat="45.62624" lon="6.65132">
        <ele>2512.6000976562</ele>
        <time>2012-03-25T07:30:16.000Z</time>
      </trkpt>
      <trkpt lat="45.62623" lon="6.65132">
        <ele>2512.6000976562</ele>
        <time>2012-03-25T07:30:29.000Z</time>
      </trkpt>
      <trkpt lat="45.62622" lon="6.6513">
        <ele>2512.6000976562</ele>
        <time>2012-03-25T07:30:36.000Z</time>
      </trkpt>
      <trkpt lat="45.62622" lon="6.6513">
        <ele>2512.8000488281</ele>
        <time>2012-03-25T07:30:50.000Z</time>
      </trkpt>
      <trkpt lat="45.62622" lon="6.6513">
        <ele>2512.8000488281</ele>
        <time>2012-03-25T07:31:03.000Z</time>
      </trkpt>
      <trkpt lat="45.62622" lon="6.6513">
        <ele>2512.6000976562</ele>
        <time>2012-03-25T07:31:19.000Z</time>
      </trkpt>
      <trkpt lat="45.62621" lon="6.6513">
        <ele>2512.8000488281</ele>
        <time>2012-03-25T07:31:44.000Z</time>
      </trkpt>
      <trkpt lat="45.62621" lon="6.65131">
        <ele>2513</ele>
        <time>2012-03-25T07:32:02.000Z</time>
      </trkpt>
      <trkpt lat="45.62618" lon="6.6513">
        <ele>2513.6000976562</ele>
        <time>2012-03-25T07:32:17.000Z</time>
      </trkpt>
      <trkpt lat="45.62612" lon="6.65127">
        <ele>2514.3999023438</ele>
        <time>2012-03-25T07:32:27.000Z</time>
      </trkpt>
      <trkpt lat="45.62608" lon="6.65126">
        <ele>2515</ele>
        <time>2012-03-25T07:32:36.000Z</time>
      </trkpt>
      <trkpt lat="45.62601" lon="6.65126">
        <ele>2516.6000976562</ele>
        <time>2012-03-25T07:32:49.000Z</time>
      </trkpt>
      <trkpt lat="45.62596" lon="6.6513">
        <ele>2518.1999511719</ele>
        <time>2012-03-25T07:33:01.000Z</time>
      </trkpt>
      <trkpt lat="45.62593" lon="6.65133">
        <ele>2519.3999023438</ele>
        <time>2012-03-25T07:33:11.000Z</time>
      </trkpt>
      <trkpt lat="45.62591" lon="6.65133">
        <ele>2519.8000488281</ele>
        <time>2012-03-25T07:33:32.000Z</time>
      </trkpt>
      <trkpt lat="45.62595" lon="6.65124">
        <ele>2517.3999023438</ele>
        <time>2012-03-25T07:33:58.000Z</time>
      </trkpt>
      <trkpt lat="45.62597" lon="6.65118">
        <ele>2516.1999511719</ele>
        <time>2012-03-25T07:34:11.000Z</time>
      </trkpt>
      <trkpt lat="45.62599" lon="6.65115">
        <ele>2515</ele>
        <time>2012-03-25T07:34:22.000Z</time>
      </trkpt>
      <trkpt lat="45.62604" lon="6.65112">
        <ele>2513.3999023438</ele>
        <time>2012-03-25T07:34:35.000Z</time>
      </trkpt>
      <trkpt lat="45.62609" lon="6.6511">
        <ele>2512.1999511719</ele>
        <time>2012-03-25T07:34:46.000Z</time>
      </trkpt>
      <trkpt lat="45.62611" lon="6.65108">
        <ele>2511.3999023438</ele>
        <time>2012-03-25T07:35:02.000Z</time>
      </trkpt>
      <trkpt lat="45.62618" lon="6.65116">
        <ele>2511.3999023438</ele>
        <time>2012-03-25T07:35:17.000Z</time>
      </trkpt>
      <trkpt lat="45.62621" lon="6.65132">
        <ele>2513.1999511719</ele>
        <time>2012-03-25T07:35:26.000Z</time>
      </trkpt>
      <trkpt lat="45.62619" lon="6.65138">
        <ele>2514.6000976562</ele>
        <time>2012-03-25T07:35:32.000Z</time>
      </trkpt>
      <trkpt lat="45.62619" lon="6.65138">
        <ele>2514.6000976562</ele>
        <time>2012-03-25T07:35:48.000Z</time>
      </trkpt>
      <trkpt lat="45.62619" lon="6.65138">
        <ele>2514.6000976562</ele>
        <time>2012-03-25T07:35:56.000Z</time>
      </trkpt>
      <trkpt lat="45.62619" lon="6.6514">
        <ele>2515</ele>
        <time>2012-03-25T07:36:02.000Z</time>
      </trkpt>
      <trkpt lat="45.62619" lon="6.65139">
        <ele>2514.8000488281</ele>
        <time>2012-03-25T07:36:25.000Z</time>
      </trkpt>
      <trkpt lat="45.62619" lon="6.6514">
        <ele>2515</ele>
        <time>2012-03-25T07:36:37.000Z</time>
      </trkpt>
      <trkpt lat="45.62618" lon="6.65139">
        <ele>2515</ele>
        <time>2012-03-25T07:37:00.000Z</time>
      </trkpt>
      <trkpt lat="45.62618" lon="6.6514">
        <ele>2515.1999511719</ele>
        <time>2012-03-25T07:37:13.000Z</time>
      </trkpt>
      <trkpt lat="45.62618" lon="6.6514">
        <ele>2515.1999511719</ele>
        <time>2012-03-25T07:37:32.000Z</time>
      </trkpt>
      <trkpt lat="45.62618" lon="6.65139">
        <ele>2515</ele>
        <time>2012-03-25T07:37:57.000Z</time>
      </trkpt>
      <trkpt lat="45.62618" lon="6.65139">
        <ele>2515</ele>
        <time>2012-03-25T07:38:07.000Z</time>
      </trkpt>
      <trkpt lat="45.62618" lon="6.65138">
        <ele>2515</ele>
        <time>2012-03-25T07:38:23.000Z</time>
      </trkpt>
      <trkpt lat="45.62618" lon="6.65139">
        <ele>2514.8000488281</ele>
        <time>2012-03-25T07:38:36.000Z</time>
      </trkpt>
      <trkpt lat="45.62618" lon="6.65137">
        <ele>2514.6000976562</ele>
        <time>2012-03-25T07:38:42.000Z</time>
      </trkpt>
      <trkpt lat="45.62619" lon="6.65138">
        <ele>2514.8000488281</ele>
        <time>2012-03-25T07:39:07.000Z</time>
      </trkpt>
      <trkpt lat="45.62618" lon="6.65136">
        <ele>2514.6000976562</ele>
        <time>2012-03-25T07:39:22.000Z</time>
      </trkpt>
      <trkpt lat="45.62618" lon="6.65137">
        <ele>2514.8000488281</ele>
        <time>2012-03-25T07:39:39.000Z</time>
      </trkpt>
      <trkpt lat="45.62618" lon="6.65139">
        <ele>2515</ele>
        <time>2012-03-25T07:39:58.000Z</time>
      </trkpt>
      <trkpt lat="45.62618" lon="6.6514">
        <ele>2515</ele>
        <time>2012-03-25T07:40:04.000Z</time>
      </trkpt>
      <trkpt lat="45.62619" lon="6.65139">
        <ele>2515</ele>
        <time>2012-03-25T07:40:19.000Z</time>
      </trkpt>
      <trkpt lat="45.62618" lon="6.65138">
        <ele>2514.8000488281</ele>
        <time>2012-03-25T07:40:36.000Z</time>
      </trkpt>
      <trkpt lat="45.62618" lon="6.65138">
        <ele>2515</ele>
        <time>2012-03-25T07:40:44.000Z</time>
      </trkpt>
      <trkpt lat="45.62618" lon="6.65139">
        <ele>2515</ele>
        <time>2012-03-25T07:41:00.000Z</time>
      </trkpt>
      <trkpt lat="45.62617" lon="6.65139">
        <ele>2515.1999511719</ele>
        <time>2012-03-25T07:41:17.000Z</time>
      </trkpt>
      <trkpt lat="45.62618" lon="6.65138">
        <ele>2514.8000488281</ele>
        <time>2012-03-25T07:41:42.000Z</time>
      </trkpt>
      <trkpt lat="45.62617" lon="6.6514">
        <ele>2515.1999511719</ele>
        <time>2012-03-25T07:41:58.000Z</time>
      </trkpt>
      <trkpt lat="45.62617" lon="6.6514">
        <ele>2515.1999511719</ele>
        <time>2012-03-25T07:42:16.000Z</time>
      </trkpt>
      <trkpt lat="45.62617" lon="6.6514">
        <ele>2515.1999511719</ele>
        <time>2012-03-25T07:42:30.000Z</time>
      </trkpt>
      <trkpt lat="45.62617" lon="6.6514">
        <ele>2515.1999511719</ele>
        <time>2012-03-25T07:42:51.000Z</time>
      </trkpt>
      <trkpt lat="45.62618" lon="6.6514">
        <ele>2515.1999511719</ele>
        <time>2012-03-25T07:43:11.000Z</time>
      </trkpt>
      <trkpt lat="45.62617" lon="6.65139">
        <ele>2515.1999511719</ele>
        <time>2012-03-25T07:43:19.000Z</time>
      </trkpt>
      <trkpt lat="45.62617" lon="6.6514">
        <ele>2515.3999023438</ele>
        <time>2012-03-25T07:43:50.000Z</time>
      </trkpt>
      <trkpt lat="45.62617" lon="6.6514">
        <ele>2515.3999023438</ele>
        <time>2012-03-25T07:44:04.000Z</time>
      </trkpt>
      <trkpt lat="45.62617" lon="6.6514">
        <ele>2515.3999023438</ele>
        <time>2012-03-25T07:44:27.000Z</time>
      </trkpt>
      <trkpt lat="45.62618" lon="6.6514">
        <ele>2515.1999511719</ele>
        <time>2012-03-25T07:44:50.000Z</time>
      </trkpt>
      <trkpt lat="45.62618" lon="6.6514">
        <ele>2515.1999511719</ele>
        <time>2012-03-25T07:45:02.000Z</time>
      </trkpt>
      <trkpt lat="45.62619" lon="6.65141">
        <ele>2515</ele>
        <time>2012-03-25T07:45:16.000Z</time>
      </trkpt>
      <trkpt lat="45.62613" lon="6.65155">
        <ele>2518.8000488281</ele>
        <time>2012-03-25T07:45:26.000Z</time>
      </trkpt>
      <trkpt lat="45.62602" lon="6.65171">
        <ele>2522.8000488281</ele>
        <time>2012-03-25T07:45:32.000Z</time>
      </trkpt>
      <trkpt lat="45.62607" lon="6.65186">
        <ele>2521</ele>
        <time>2012-03-25T07:45:37.000Z</time>
      </trkpt>
      <trkpt lat="45.62595" lon="6.652">
        <ele>2522.3999023438</ele>
        <time>2012-03-25T07:45:43.000Z</time>
      </trkpt>
      <trkpt lat="45.626" lon="6.65218">
        <ele>2520.3999023438</ele>
        <time>2012-03-25T07:45:48.000Z</time>
      </trkpt>
      <trkpt lat="45.62594" lon="6.65223">
        <ele>2521.1999511719</ele>
        <time>2012-03-25T07:45:52.000Z</time>
      </trkpt>
      <trkpt lat="45.62599" lon="6.65237">
        <ele>2519.3999023438</ele>
        <time>2012-03-25T07:45:58.000Z</time>
      </trkpt>
      <trkpt lat="45.62592" lon="6.65243">
        <ele>2520.1999511719</ele>
        <time>2012-03-25T07:46:02.000Z</time>
      </trkpt>
      <trkpt lat="45.626" lon="6.65253">
        <ele>2517</ele>
        <time>2012-03-25T07:46:08.000Z</time>
      </trkpt>
      <trkpt lat="45.62602" lon="6.65266">
        <ele>2511.1999511719</ele>
        <time>2012-03-25T07:46:18.000Z</time>
      </trkpt>
      <trkpt lat="45.626" lon="6.65274">
        <ele>2508</ele>
        <time>2012-03-25T07:46:23.000Z</time>
      </trkpt>
      <trkpt lat="45.62598" lon="6.65284">
        <ele>2503.8000488281</ele>
        <time>2012-03-25T07:46:28.000Z</time>
      </trkpt>
      <trkpt lat="45.62592" lon="6.6529">
        <ele>2502.1999511719</ele>
        <time>2012-03-25T07:46:32.000Z</time>
      </trkpt>
      <trkpt lat="45.626" lon="6.65299">
        <ele>2496.8000488281</ele>
        <time>2012-03-25T07:46:42.000Z</time>
      </trkpt>
      <trkpt lat="45.62596" lon="6.65319">
        <ele>2489</ele>
        <time>2012-03-25T07:46:49.000Z</time>
      </trkpt>
      <trkpt lat="45.62592" lon="6.65333">
        <ele>2483.6000976562</ele>
        <time>2012-03-25T07:46:55.000Z</time>
      </trkpt>
      <trkpt lat="45.62586" lon="6.65343">
        <ele>2479.8000488281</ele>
        <time>2012-03-25T07:46:59.000Z</time>
      </trkpt>
      <trkpt lat="45.62589" lon="6.65348">
        <ele>2476.8000488281</ele>
        <time>2012-03-25T07:47:05.000Z</time>
      </trkpt>
      <trkpt lat="45.62589" lon="6.65347">
        <ele>2477.6000976562</ele>
        <time>2012-03-25T07:47:14.000Z</time>
      </trkpt>
      <trkpt lat="45.62597" lon="6.65356">
        <ele>2471.8000488281</ele>
        <time>2012-03-25T07:47:22.000Z</time>
      </trkpt>
      <trkpt lat="45.62605" lon="6.65368">
        <ele>2465</ele>
        <time>2012-03-25T07:47:26.000Z</time>
      </trkpt>
      <trkpt lat="45.62606" lon="6.65382">
        <ele>2458.8000488281</ele>
        <time>2012-03-25T07:47:30.000Z</time>
      </trkpt>
      <trkpt lat="45.62611" lon="6.65394">
        <ele>2452.6000976562</ele>
        <time>2012-03-25T07:47:35.000Z</time>
      </trkpt>
      <trkpt lat="45.62618" lon="6.65397">
        <ele>2450.8000488281</ele>
        <time>2012-03-25T07:47:48.000Z</time>
      </trkpt>
      <trkpt lat="45.62615" lon="6.65404">
        <ele>2447.8000488281</ele>
        <time>2012-03-25T07:47:56.000Z</time>
      </trkpt>
      <trkpt lat="45.62613" lon="6.65407">
        <ele>2446.6000976562</ele>
        <time>2012-03-25T07:48:04.000Z</time>
      </trkpt>
      <trkpt lat="45.6262" lon="6.6542">
        <ele>2441</ele>
        <time>2012-03-25T07:48:08.000Z</time>
      </trkpt>
      <trkpt lat="45.62618" lon="6.65435">
        <ele>2435.6000976562</ele>
        <time>2012-03-25T07:48:13.000Z</time>
      </trkpt>
      <trkpt lat="45.62618" lon="6.65449">
        <ele>2430.6000976562</ele>
        <time>2012-03-25T07:48:17.000Z</time>
      </trkpt>
      <trkpt lat="45.62624" lon="6.65474">
        <ele>2421.6000976562</ele>
        <time>2012-03-25T07:48:22.000Z</time>
      </trkpt>
      <trkpt lat="45.62623" lon="6.65499">
        <ele>2412.8000488281</ele>
        <time>2012-03-25T07:48:26.000Z</time>
      </trkpt>
      <trkpt lat="45.62623" lon="6.65531">
        <ele>2404.6000976562</ele>
        <time>2012-03-25T07:48:31.000Z</time>
      </trkpt>
      <trkpt lat="45.62623" lon="6.65545">
        <ele>2401</ele>
        <time>2012-03-25T07:48:35.000Z</time>
      </trkpt>
      <trkpt lat="45.62629" lon="6.65555">
        <ele>2398.6000976562</ele>
        <time>2012-03-25T07:48:39.000Z</time>
      </trkpt>
      <trkpt lat="45.62625" lon="6.6557">
        <ele>2394.3999023438</ele>
        <time>2012-03-25T07:48:47.000Z</time>
      </trkpt>
      <trkpt lat="45.62619" lon="6.65593">
        <ele>2388</ele>
        <time>2012-03-25T07:48:51.000Z</time>
      </trkpt>
      <trkpt lat="45.62616" lon="6.65603">
        <ele>2385.1999511719</ele>
        <time>2012-03-25T07:48:55.000Z</time>
      </trkpt>
      <trkpt lat="45.62616" lon="6.6561">
        <ele>2383.3999023438</ele>
        <time>2012-03-25T07:49:05.000Z</time>
      </trkpt>
      <trkpt lat="45.62611" lon="6.65628">
        <ele>2377.6000976562</ele>
        <time>2012-03-25T07:49:09.000Z</time>
      </trkpt>
      <trkpt lat="45.626" lon="6.6565">
        <ele>2368.8000488281</ele>
        <time>2012-03-25T07:49:13.000Z</time>
      </trkpt>
      <trkpt lat="45.62588" lon="6.65673">
        <ele>2359.6000976562</ele>
        <time>2012-03-25T07:49:17.000Z</time>
      </trkpt>
      <trkpt lat="45.62578" lon="6.65704">
        <ele>2352.6000976562</ele>
        <time>2012-03-25T07:49:21.000Z</time>
      </trkpt>
      <trkpt lat="45.62567" lon="6.65726">
        <ele>2346.8000488281</ele>
        <time>2012-03-25T07:49:25.000Z</time>
      </trkpt>
      <trkpt lat="45.62555" lon="6.65738">
        <ele>2341.8000488281</ele>
        <time>2012-03-25T07:49:29.000Z</time>
      </trkpt>
      <trkpt lat="45.62556" lon="6.65738">
        <ele>2342</ele>
        <time>2012-03-25T07:49:39.000Z</time>
      </trkpt>
      <trkpt lat="45.62535" lon="6.65743">
        <ele>2335.8000488281</ele>
        <time>2012-03-25T07:49:45.000Z</time>
      </trkpt>
      <trkpt lat="45.62515" lon="6.65754">
        <ele>2328.3999023438</ele>
        <time>2012-03-25T07:49:49.000Z</time>
      </trkpt>
      <trkpt lat="45.62507" lon="6.65781">
        <ele>2323.1999511719</ele>
        <time>2012-03-25T07:49:54.000Z</time>
      </trkpt>
      <trkpt lat="45.62507" lon="6.65782">
        <ele>2323.1999511719</ele>
        <time>2012-03-25T07:50:09.000Z</time>
      </trkpt>
      <trkpt lat="45.62498" lon="6.65792">
        <ele>2319.3999023438</ele>
        <time>2012-03-25T07:50:18.000Z</time>
      </trkpt>
      <trkpt lat="45.62497" lon="6.65795">
        <ele>2318.6000976562</ele>
        <time>2012-03-25T07:50:22.000Z</time>
      </trkpt>
      <trkpt lat="45.62478" lon="6.65817">
        <ele>2312.8000488281</ele>
        <time>2012-03-25T07:50:29.000Z</time>
      </trkpt>
      <trkpt lat="45.62459" lon="6.65837">
        <ele>2306.1999511719</ele>
        <time>2012-03-25T07:50:33.000Z</time>
      </trkpt>
      <trkpt lat="45.62463" lon="6.65865">
        <ele>2300</ele>
        <time>2012-03-25T07:50:38.000Z</time>
      </trkpt>
      <trkpt lat="45.62473" lon="6.65901">
        <ele>2293</ele>
        <time>2012-03-25T07:50:43.000Z</time>
      </trkpt>
      <trkpt lat="45.62481" lon="6.65936">
        <ele>2286</ele>
        <time>2012-03-25T07:50:49.000Z</time>
      </trkpt>
      <trkpt lat="45.62483" lon="6.6594">
        <ele>2285.1999511719</ele>
        <time>2012-03-25T07:50:56.000Z</time>
      </trkpt>
      <trkpt lat="45.62485" lon="6.65972">
        <ele>2277.3999023438</ele>
        <time>2012-03-25T07:51:01.000Z</time>
      </trkpt>
      <trkpt lat="45.62487" lon="6.66">
        <ele>2270.3999023438</ele>
        <time>2012-03-25T07:51:05.000Z</time>
      </trkpt>
      <trkpt lat="45.62495" lon="6.66028">
        <ele>2263.1999511719</ele>
        <time>2012-03-25T07:51:09.000Z</time>
      </trkpt>
      <trkpt lat="45.62503" lon="6.66059">
        <ele>2255</ele>
        <time>2012-03-25T07:51:13.000Z</time>
      </trkpt>
      <trkpt lat="45.62509" lon="6.66087">
        <ele>2249</ele>
        <time>2012-03-25T07:51:17.000Z</time>
      </trkpt>
      <trkpt lat="45.62528" lon="6.661">
        <ele>2249</ele>
        <time>2012-03-25T07:51:23.000Z</time>
      </trkpt>
      <trkpt lat="45.62545" lon="6.66125">
        <ele>2243.3999023438</ele>
        <time>2012-03-25T07:51:30.000Z</time>
      </trkpt>
      <trkpt lat="45.6256" lon="6.66131">
        <ele>2240</ele>
        <time>2012-03-25T07:51:36.000Z</time>
      </trkpt>
      <trkpt lat="45.62561" lon="6.66134">
        <ele>2239</ele>
        <time>2012-03-25T07:51:48.000Z</time>
      </trkpt>
      <trkpt lat="45.62572" lon="6.66151">
        <ele>2230.8000488281</ele>
        <time>2012-03-25T07:51:54.000Z</time>
      </trkpt>
      <trkpt lat="45.62584" lon="6.66173">
        <ele>2221.1999511719</ele>
        <time>2012-03-25T07:51:59.000Z</time>
      </trkpt>
      <trkpt lat="45.62602" lon="6.66205">
        <ele>2217.8000488281</ele>
        <time>2012-03-25T07:52:04.000Z</time>
      </trkpt>
      <trkpt lat="45.62623" lon="6.66227">
        <ele>2211</ele>
        <time>2012-03-25T07:52:10.000Z</time>
      </trkpt>
      <trkpt lat="45.62644" lon="6.66259">
        <ele>2202.6000976562</ele>
        <time>2012-03-25T07:52:15.000Z</time>
      </trkpt>
      <trkpt lat="45.62669" lon="6.66284">
        <ele>2196.8000488281</ele>
        <time>2012-03-25T07:52:19.000Z</time>
      </trkpt>
      <trkpt lat="45.62686" lon="6.66292">
        <ele>2191.1999511719</ele>
        <time>2012-03-25T07:52:24.000Z</time>
      </trkpt>
      <trkpt lat="45.62687" lon="6.6629">
        <ele>2190.8000488281</ele>
        <time>2012-03-25T07:52:38.000Z</time>
      </trkpt>
      <trkpt lat="45.62694" lon="6.66272">
        <ele>2186.6000976562</ele>
        <time>2012-03-25T07:52:45.000Z</time>
      </trkpt>
      <trkpt lat="45.62699" lon="6.66246">
        <ele>2184.1999511719</ele>
        <time>2012-03-25T07:52:50.000Z</time>
      </trkpt>
      <trkpt lat="45.62706" lon="6.66245">
        <ele>2182.3999023438</ele>
        <time>2012-03-25T07:53:01.000Z</time>
      </trkpt>
      <trkpt lat="45.62705" lon="6.66244">
        <ele>2182.6000976562</ele>
        <time>2012-03-25T07:53:19.000Z</time>
      </trkpt>
      <trkpt lat="45.62712" lon="6.66257">
        <ele>2179.3999023438</ele>
        <time>2012-03-25T07:53:33.000Z</time>
      </trkpt>
      <trkpt lat="45.62727" lon="6.66288">
        <ele>2175.6000976562</ele>
        <time>2012-03-25T07:53:38.000Z</time>
      </trkpt>
      <trkpt lat="45.62746" lon="6.66315">
        <ele>2168.8000488281</ele>
        <time>2012-03-25T07:53:44.000Z</time>
      </trkpt>
      <trkpt lat="45.62767" lon="6.6633">
        <ele>2162.3999023438</ele>
        <time>2012-03-25T07:53:50.000Z</time>
      </trkpt>
      <trkpt lat="45.62793" lon="6.6635">
        <ele>2157.3999023438</ele>
        <time>2012-03-25T07:54:00.000Z</time>
      </trkpt>
      <trkpt lat="45.62809" lon="6.66363">
        <ele>2155</ele>
        <time>2012-03-25T07:54:05.000Z</time>
      </trkpt>
      <trkpt lat="45.62838" lon="6.66385">
        <ele>2150.3999023438</ele>
        <time>2012-03-25T07:54:13.000Z</time>
      </trkpt>
      <trkpt lat="45.62855" lon="6.66396">
        <ele>2144.8000488281</ele>
        <time>2012-03-25T07:54:17.000Z</time>
      </trkpt>
      <trkpt lat="45.62869" lon="6.66417">
        <ele>2140.1999511719</ele>
        <time>2012-03-25T07:54:27.000Z</time>
      </trkpt>
      <trkpt lat="45.62873" lon="6.6642">
        <ele>2138.3999023438</ele>
        <time>2012-03-25T07:54:37.000Z</time>
      </trkpt>
      <trkpt lat="45.62881" lon="6.66435">
        <ele>2135.3999023438</ele>
        <time>2012-03-25T07:54:43.000Z</time>
      </trkpt>
      <trkpt lat="45.62889" lon="6.6645">
        <ele>2132.8000488281</ele>
        <time>2012-03-25T07:54:47.000Z</time>
      </trkpt>
      <trkpt lat="45.629" lon="6.66474">
        <ele>2129.6000976562</ele>
        <time>2012-03-25T07:54:53.000Z</time>
      </trkpt>
      <trkpt lat="45.62913" lon="6.66494">
        <ele>2125</ele>
        <time>2012-03-25T07:54:58.000Z</time>
      </trkpt>
      <trkpt lat="45.62924" lon="6.66508">
        <ele>2123</ele>
        <time>2012-03-25T07:55:03.000Z</time>
      </trkpt>
      <trkpt lat="45.62937" lon="6.66525">
        <ele>2121.1999511719</ele>
        <time>2012-03-25T07:55:08.000Z</time>
      </trkpt>
      <trkpt lat="45.62945" lon="6.66544">
        <ele>2120.3999023438</ele>
        <time>2012-03-25T07:55:14.000Z</time>
      </trkpt>
      <trkpt lat="45.6295" lon="6.66551">
        <ele>2119.3999023438</ele>
        <time>2012-03-25T07:55:24.000Z</time>
      </trkpt>
      <trkpt lat="45.62958" lon="6.66557">
        <ele>2115.8000488281</ele>
        <time>2012-03-25T07:55:29.000Z</time>
      </trkpt>
      <trkpt lat="45.62968" lon="6.6655">
        <ele>2109.8000488281</ele>
        <time>2012-03-25T07:55:33.000Z</time>
      </trkpt>
      <trkpt lat="45.62967" lon="6.66548">
        <ele>2110</ele>
        <time>2012-03-25T07:55:42.000Z</time>
      </trkpt>
      <trkpt lat="45.62974" lon="6.66541">
        <ele>2105.8000488281</ele>
        <time>2012-03-25T07:55:48.000Z</time>
      </trkpt>
      <trkpt lat="45.62982" lon="6.66531">
        <ele>2101.3999023438</ele>
        <time>2012-03-25T07:55:52.000Z</time>
      </trkpt>
      <trkpt lat="45.62993" lon="6.66537">
        <ele>2096.3999023438</ele>
        <time>2012-03-25T07:55:56.000Z</time>
      </trkpt>
      <trkpt lat="45.63009" lon="6.66535">
        <ele>2091</ele>
        <time>2012-03-25T07:56:00.000Z</time>
      </trkpt>
      <trkpt lat="45.63013" lon="6.66515">
        <ele>2089.6000976562</ele>
        <time>2012-03-25T07:56:04.000Z</time>
      </trkpt>
      <trkpt lat="45.63026" lon="6.66517">
        <ele>2086.8000488281</ele>
        <time>2012-03-25T07:56:08.000Z</time>
      </trkpt>
      <trkpt lat="45.6305" lon="6.66515">
        <ele>2081.8000488281</ele>
        <time>2012-03-25T07:56:15.000Z</time>
      </trkpt>
      <trkpt lat="45.63068" lon="6.6652">
        <ele>2077.3999023438</ele>
        <time>2012-03-25T07:56:26.000Z</time>
      </trkpt>
      <trkpt lat="45.63084" lon="6.66533">
        <ele>2072.1999511719</ele>
        <time>2012-03-25T07:56:31.000Z</time>
      </trkpt>
      <trkpt lat="45.63107" lon="6.66545">
        <ele>2064.6000976562</ele>
        <time>2012-03-25T07:56:38.000Z</time>
      </trkpt>
      <trkpt lat="45.63117" lon="6.6659">
        <ele>2056.6000976562</ele>
        <time>2012-03-25T07:56:50.000Z</time>
      </trkpt>
    </trkseg>
  </trk>
</gpx>